<?xml version="1.0" encoding="UTF-8" standalone="no" ?>
<gpx xmlns="http://www.topografix.com/GPX/1/1" xmlns:xsi="http://www.w3.org/2001/XMLSchema-instance" xsi:schemaLocation="http://www.topografix.com/GPX/1/1 http://www.topografix.com/GPX/1/1/gpx.xsd" version="1.1" creator="VisuGPX - https://www.visugpx.com">
  <metadata>
    <name>MARCHE DE LA TOUR 2018 (Nov)</name>
    <desc><![CDATA[Balade à Coo depuis le parc Ploopsacoo  suivre la ligne des télésièges indication croix bleu sur fond blanc ]]></desc>
  </metadata>
  <trk>
    <name><![CDATA[cascade de coo]]></name>
    <trkseg>
      <trkpt lat="50.39361" lon="5.87738">
        <ele>212</ele>
        <time>2018-11-04T13:39:33Z</time>
      </trkpt>
      <trkpt lat="50.39357" lon="5.8772">
        <ele>212</ele>
        <time>2018-11-04T13:39:43Z</time>
      </trkpt>
      <trkpt lat="50.39351" lon="5.87706">
        <ele>211</ele>
        <time>2018-11-04T13:39:53Z</time>
      </trkpt>
      <trkpt lat="50.39354" lon="5.87694">
        <ele>211</ele>
        <time>2018-11-04T13:40:03Z</time>
      </trkpt>
      <trkpt lat="50.39356" lon="5.87694">
        <ele>211</ele>
        <time>2018-11-04T13:40:13Z</time>
      </trkpt>
      <trkpt lat="50.39357" lon="5.87696">
        <ele>211</ele>
        <time>2018-11-04T13:40:23Z</time>
      </trkpt>
      <trkpt lat="50.39357" lon="5.87691">
        <ele>211</ele>
        <time>2018-11-04T13:40:34Z</time>
      </trkpt>
      <trkpt lat="50.39354" lon="5.87683">
        <ele>211</ele>
        <time>2018-11-04T13:40:45Z</time>
      </trkpt>
      <trkpt lat="50.39351" lon="5.87675">
        <ele>211</ele>
        <time>2018-11-04T13:40:55Z</time>
      </trkpt>
      <trkpt lat="50.39351" lon="5.87677">
        <ele>210</ele>
        <time>2018-11-04T13:41:06Z</time>
      </trkpt>
      <trkpt lat="50.39351" lon="5.87678">
        <ele>209</ele>
        <time>2018-11-04T13:41:18Z</time>
      </trkpt>
      <trkpt lat="50.3935" lon="5.87679">
        <ele>209</ele>
        <time>2018-11-04T13:41:29Z</time>
      </trkpt>
      <trkpt lat="50.39351" lon="5.8768">
        <ele>209</ele>
        <time>2018-11-04T13:41:40Z</time>
      </trkpt>
      <trkpt lat="50.39352" lon="5.8768">
        <ele>209</ele>
        <time>2018-11-04T13:41:50Z</time>
      </trkpt>
      <trkpt lat="50.39353" lon="5.87681">
        <ele>207</ele>
        <time>2018-11-04T13:42:00Z</time>
      </trkpt>
      <trkpt lat="50.39353" lon="5.8768">
        <ele>207</ele>
        <time>2018-11-04T13:42:11Z</time>
      </trkpt>
      <trkpt lat="50.39353" lon="5.87679">
        <ele>207</ele>
        <time>2018-11-04T13:42:21Z</time>
      </trkpt>
      <trkpt lat="50.39353" lon="5.87678">
        <ele>207</ele>
        <time>2018-11-04T13:42:32Z</time>
      </trkpt>
      <trkpt lat="50.39354" lon="5.87676">
        <ele>207</ele>
        <time>2018-11-04T13:42:43Z</time>
      </trkpt>
      <trkpt lat="50.39354" lon="5.87676">
        <ele>207</ele>
        <time>2018-11-04T13:42:53Z</time>
      </trkpt>
      <trkpt lat="50.39354" lon="5.87674">
        <ele>206</ele>
        <time>2018-11-04T13:43:04Z</time>
      </trkpt>
      <trkpt lat="50.39353" lon="5.87672">
        <ele>207</ele>
        <time>2018-11-04T13:43:14Z</time>
      </trkpt>
      <trkpt lat="50.39352" lon="5.87672">
        <ele>207</ele>
        <time>2018-11-04T13:43:25Z</time>
      </trkpt>
      <trkpt lat="50.39352" lon="5.87669">
        <ele>207</ele>
        <time>2018-11-04T13:43:35Z</time>
      </trkpt>
      <trkpt lat="50.39351" lon="5.87664">
        <ele>206</ele>
        <time>2018-11-04T13:43:46Z</time>
      </trkpt>
      <trkpt lat="50.39353" lon="5.87664">
        <ele>205</ele>
        <time>2018-11-04T13:43:56Z</time>
      </trkpt>
      <trkpt lat="50.39354" lon="5.87668">
        <ele>204</ele>
        <time>2018-11-04T13:44:07Z</time>
      </trkpt>
      <trkpt lat="50.39354" lon="5.87671">
        <ele>204</ele>
        <time>2018-11-04T13:44:17Z</time>
      </trkpt>
      <trkpt lat="50.39356" lon="5.87675">
        <ele>204</ele>
        <time>2018-11-04T13:44:27Z</time>
      </trkpt>
      <trkpt lat="50.39357" lon="5.87677">
        <ele>204</ele>
        <time>2018-11-04T13:44:38Z</time>
      </trkpt>
      <trkpt lat="50.39357" lon="5.87679">
        <ele>204</ele>
        <time>2018-11-04T13:44:48Z</time>
      </trkpt>
      <trkpt lat="50.39359" lon="5.87679">
        <ele>204</ele>
        <time>2018-11-04T13:44:58Z</time>
      </trkpt>
      <trkpt lat="50.3936" lon="5.87681">
        <ele>204</ele>
        <time>2018-11-04T13:45:09Z</time>
      </trkpt>
      <trkpt lat="50.3936" lon="5.87679">
        <ele>205</ele>
        <time>2018-11-04T13:45:19Z</time>
      </trkpt>
      <trkpt lat="50.39359" lon="5.87677">
        <ele>204</ele>
        <time>2018-11-04T13:45:30Z</time>
      </trkpt>
      <trkpt lat="50.39359" lon="5.87672">
        <ele>204</ele>
        <time>2018-11-04T13:45:40Z</time>
      </trkpt>
      <trkpt lat="50.39358" lon="5.87663">
        <ele>204</ele>
        <time>2018-11-04T13:45:51Z</time>
      </trkpt>
      <trkpt lat="50.39357" lon="5.87662">
        <ele>204</ele>
        <time>2018-11-04T13:46:04Z</time>
      </trkpt>
      <trkpt lat="50.39357" lon="5.87663">
        <ele>205</ele>
        <time>2018-11-04T13:46:15Z</time>
      </trkpt>
      <trkpt lat="50.39355" lon="5.87662">
        <ele>204</ele>
        <time>2018-11-04T13:46:25Z</time>
      </trkpt>
      <trkpt lat="50.39353" lon="5.8766">
        <ele>204</ele>
        <time>2018-11-04T13:46:36Z</time>
      </trkpt>
      <trkpt lat="50.39352" lon="5.87659">
        <ele>204</ele>
        <time>2018-11-04T13:46:46Z</time>
      </trkpt>
      <trkpt lat="50.39351" lon="5.87658">
        <ele>204</ele>
        <time>2018-11-04T13:46:57Z</time>
      </trkpt>
      <trkpt lat="50.39352" lon="5.87659">
        <ele>204</ele>
        <time>2018-11-04T13:47:07Z</time>
      </trkpt>
      <trkpt lat="50.39353" lon="5.87664">
        <ele>204</ele>
        <time>2018-11-04T13:47:17Z</time>
      </trkpt>
      <trkpt lat="50.39353" lon="5.87668">
        <ele>204</ele>
        <time>2018-11-04T13:47:28Z</time>
      </trkpt>
      <trkpt lat="50.39354" lon="5.87671">
        <ele>204</ele>
        <time>2018-11-04T13:47:38Z</time>
      </trkpt>
      <trkpt lat="50.39356" lon="5.87674">
        <ele>204</ele>
        <time>2018-11-04T13:47:49Z</time>
      </trkpt>
      <trkpt lat="50.39358" lon="5.87678">
        <ele>205</ele>
        <time>2018-11-04T13:48:00Z</time>
      </trkpt>
      <trkpt lat="50.39359" lon="5.87681">
        <ele>204</ele>
        <time>2018-11-04T13:48:10Z</time>
      </trkpt>
      <trkpt lat="50.39359" lon="5.87682">
        <ele>204</ele>
        <time>2018-11-04T13:48:21Z</time>
      </trkpt>
      <trkpt lat="50.39358" lon="5.87677">
        <ele>204</ele>
        <time>2018-11-04T13:48:32Z</time>
      </trkpt>
      <trkpt lat="50.39357" lon="5.87672">
        <ele>204</ele>
        <time>2018-11-04T13:48:42Z</time>
      </trkpt>
      <trkpt lat="50.39355" lon="5.87668">
        <ele>204</ele>
        <time>2018-11-04T13:48:53Z</time>
      </trkpt>
      <trkpt lat="50.39354" lon="5.87664">
        <ele>204</ele>
        <time>2018-11-04T13:49:03Z</time>
      </trkpt>
      <trkpt lat="50.39352" lon="5.8766">
        <ele>204</ele>
        <time>2018-11-04T13:49:14Z</time>
      </trkpt>
      <trkpt lat="50.3935" lon="5.87657">
        <ele>203</ele>
        <time>2018-11-04T13:49:25Z</time>
      </trkpt>
      <trkpt lat="50.39351" lon="5.87656">
        <ele>202</ele>
        <time>2018-11-04T13:49:35Z</time>
      </trkpt>
      <trkpt lat="50.39354" lon="5.87658">
        <ele>202</ele>
        <time>2018-11-04T13:49:45Z</time>
      </trkpt>
      <trkpt lat="50.39358" lon="5.8766">
        <ele>199</ele>
        <time>2018-11-04T13:49:56Z</time>
      </trkpt>
      <trkpt lat="50.39363" lon="5.87665">
        <ele>199</ele>
        <time>2018-11-04T13:50:07Z</time>
      </trkpt>
      <trkpt lat="50.39367" lon="5.87668">
        <ele>199</ele>
        <time>2018-11-04T13:50:17Z</time>
      </trkpt>
      <trkpt lat="50.3937" lon="5.8767">
        <ele>199</ele>
        <time>2018-11-04T13:50:27Z</time>
      </trkpt>
      <trkpt lat="50.39375" lon="5.87672">
        <ele>199</ele>
        <time>2018-11-04T13:50:38Z</time>
      </trkpt>
      <trkpt lat="50.39377" lon="5.87674">
        <ele>199</ele>
        <time>2018-11-04T13:50:48Z</time>
      </trkpt>
      <trkpt lat="50.39375" lon="5.87675">
        <ele>199</ele>
        <time>2018-11-04T13:50:59Z</time>
      </trkpt>
      <trkpt lat="50.39372" lon="5.87676">
        <ele>199</ele>
        <time>2018-11-04T13:51:09Z</time>
      </trkpt>
      <trkpt lat="50.3937" lon="5.87676">
        <ele>199</ele>
        <time>2018-11-04T13:51:20Z</time>
      </trkpt>
      <trkpt lat="50.3937" lon="5.87675">
        <ele>199</ele>
        <time>2018-11-04T13:51:31Z</time>
      </trkpt>
      <trkpt lat="50.3937" lon="5.87674">
        <ele>199</ele>
        <time>2018-11-04T13:51:42Z</time>
      </trkpt>
      <trkpt lat="50.3937" lon="5.87675">
        <ele>199</ele>
        <time>2018-11-04T13:51:52Z</time>
      </trkpt>
      <trkpt lat="50.39371" lon="5.87675">
        <ele>199</ele>
        <time>2018-11-04T13:52:03Z</time>
      </trkpt>
      <trkpt lat="50.3937" lon="5.87674">
        <ele>199</ele>
        <time>2018-11-04T13:52:13Z</time>
      </trkpt>
      <trkpt lat="50.39368" lon="5.8767">
        <ele>200</ele>
        <time>2018-11-04T13:52:24Z</time>
      </trkpt>
      <trkpt lat="50.39365" lon="5.87667">
        <ele>199</ele>
        <time>2018-11-04T13:52:35Z</time>
      </trkpt>
      <trkpt lat="50.39362" lon="5.87661">
        <ele>199</ele>
        <time>2018-11-04T13:52:45Z</time>
      </trkpt>
      <trkpt lat="50.39358" lon="5.87655">
        <ele>200</ele>
        <time>2018-11-04T13:52:56Z</time>
      </trkpt>
      <trkpt lat="50.39356" lon="5.87657">
        <ele>203</ele>
        <time>2018-11-04T13:53:07Z</time>
      </trkpt>
      <trkpt lat="50.39354" lon="5.87661">
        <ele>205</ele>
        <time>2018-11-04T13:53:17Z</time>
      </trkpt>
      <trkpt lat="50.39354" lon="5.87664">
        <ele>206</ele>
        <time>2018-11-04T13:53:27Z</time>
      </trkpt>
      <trkpt lat="50.39352" lon="5.87668">
        <ele>206</ele>
        <time>2018-11-04T13:53:37Z</time>
      </trkpt>
      <trkpt lat="50.39352" lon="5.87675">
        <ele>208</ele>
        <time>2018-11-04T13:53:48Z</time>
      </trkpt>
      <trkpt lat="50.3935" lon="5.87673">
        <ele>210</ele>
        <time>2018-11-04T13:53:59Z</time>
      </trkpt>
      <trkpt lat="50.39345" lon="5.87665">
        <ele>212</ele>
        <time>2018-11-04T13:54:09Z</time>
      </trkpt>
      <trkpt lat="50.39341" lon="5.87654">
        <ele>211</ele>
        <time>2018-11-04T13:54:19Z</time>
      </trkpt>
      <trkpt lat="50.39339" lon="5.87637">
        <ele>210</ele>
        <time>2018-11-04T13:54:30Z</time>
      </trkpt>
      <trkpt lat="50.39338" lon="5.8763">
        <ele>209</ele>
        <time>2018-11-04T13:54:42Z</time>
      </trkpt>
      <trkpt lat="50.39336" lon="5.87623">
        <ele>208</ele>
        <time>2018-11-04T13:54:52Z</time>
      </trkpt>
      <trkpt lat="50.39336" lon="5.87618">
        <ele>208</ele>
        <time>2018-11-04T13:55:03Z</time>
      </trkpt>
      <trkpt lat="50.39337" lon="5.87618">
        <ele>208</ele>
        <time>2018-11-04T13:55:15Z</time>
      </trkpt>
      <trkpt lat="50.39335" lon="5.87617">
        <ele>208</ele>
        <time>2018-11-04T13:55:27Z</time>
      </trkpt>
      <trkpt lat="50.39333" lon="5.87616">
        <ele>208</ele>
        <time>2018-11-04T13:55:38Z</time>
      </trkpt>
      <trkpt lat="50.39335" lon="5.87625">
        <ele>208</ele>
        <time>2018-11-04T13:55:49Z</time>
      </trkpt>
      <trkpt lat="50.39336" lon="5.87629">
        <ele>209</ele>
        <time>2018-11-04T13:55:59Z</time>
      </trkpt>
      <trkpt lat="50.39337" lon="5.87631">
        <ele>209</ele>
        <time>2018-11-04T13:56:09Z</time>
      </trkpt>
      <trkpt lat="50.39342" lon="5.87634">
        <ele>209</ele>
        <time>2018-11-04T13:56:20Z</time>
      </trkpt>
      <trkpt lat="50.39346" lon="5.87636">
        <ele>209</ele>
        <time>2018-11-04T13:56:31Z</time>
      </trkpt>
      <trkpt lat="50.39344" lon="5.87635">
        <ele>209</ele>
        <time>2018-11-04T13:56:46Z</time>
      </trkpt>
      <trkpt lat="50.39345" lon="5.87636">
        <ele>208</ele>
        <time>2018-11-04T13:56:56Z</time>
      </trkpt>
      <trkpt lat="50.39347" lon="5.87637">
        <ele>209</ele>
        <time>2018-11-04T13:57:07Z</time>
      </trkpt>
      <trkpt lat="50.3935" lon="5.87639">
        <ele>209</ele>
        <time>2018-11-04T13:57:18Z</time>
      </trkpt>
      <trkpt lat="50.39351" lon="5.87638">
        <ele>209</ele>
        <time>2018-11-04T13:57:28Z</time>
      </trkpt>
      <trkpt lat="50.39351" lon="5.87638">
        <ele>209</ele>
        <time>2018-11-04T13:57:39Z</time>
      </trkpt>
      <trkpt lat="50.39347" lon="5.87636">
        <ele>208</ele>
        <time>2018-11-04T13:57:50Z</time>
      </trkpt>
      <trkpt lat="50.39346" lon="5.87635">
        <ele>209</ele>
        <time>2018-11-04T13:58:00Z</time>
      </trkpt>
      <trkpt lat="50.39345" lon="5.87635">
        <ele>209</ele>
        <time>2018-11-04T13:58:11Z</time>
      </trkpt>
      <trkpt lat="50.39348" lon="5.87637">
        <ele>209</ele>
        <time>2018-11-04T13:58:22Z</time>
      </trkpt>
      <trkpt lat="50.39351" lon="5.8764">
        <ele>209</ele>
        <time>2018-11-04T13:58:33Z</time>
      </trkpt>
      <trkpt lat="50.3935" lon="5.87639">
        <ele>209</ele>
        <time>2018-11-04T13:58:43Z</time>
      </trkpt>
      <trkpt lat="50.39347" lon="5.87638">
        <ele>209</ele>
        <time>2018-11-04T13:58:53Z</time>
      </trkpt>
      <trkpt lat="50.39346" lon="5.87637">
        <ele>209</ele>
        <time>2018-11-04T13:59:03Z</time>
      </trkpt>
      <trkpt lat="50.39344" lon="5.87633">
        <ele>209</ele>
        <time>2018-11-04T13:59:14Z</time>
      </trkpt>
      <trkpt lat="50.39341" lon="5.87625">
        <ele>209</ele>
        <time>2018-11-04T13:59:24Z</time>
      </trkpt>
      <trkpt lat="50.39338" lon="5.87612">
        <ele>208</ele>
        <time>2018-11-04T13:59:35Z</time>
      </trkpt>
      <trkpt lat="50.39334" lon="5.87597">
        <ele>207</ele>
        <time>2018-11-04T13:59:45Z</time>
      </trkpt>
      <trkpt lat="50.39333" lon="5.87582">
        <ele>207</ele>
        <time>2018-11-04T13:59:56Z</time>
      </trkpt>
      <trkpt lat="50.39336" lon="5.87576">
        <ele>207</ele>
        <time>2018-11-04T14:00:06Z</time>
      </trkpt>
      <trkpt lat="50.39342" lon="5.87564">
        <ele>205</ele>
        <time>2018-11-04T14:00:16Z</time>
      </trkpt>
      <trkpt lat="50.3935" lon="5.87571">
        <ele>202</ele>
        <time>2018-11-04T14:00:27Z</time>
      </trkpt>
      <trkpt lat="50.39356" lon="5.87587">
        <ele>200</ele>
        <time>2018-11-04T14:00:38Z</time>
      </trkpt>
      <trkpt lat="50.39357" lon="5.876">
        <ele>200</ele>
        <time>2018-11-04T14:00:48Z</time>
      </trkpt>
      <trkpt lat="50.3936" lon="5.87614">
        <ele>198</ele>
        <time>2018-11-04T14:00:58Z</time>
      </trkpt>
      <trkpt lat="50.39363" lon="5.87612">
        <ele>197</ele>
        <time>2018-11-04T14:01:08Z</time>
      </trkpt>
      <trkpt lat="50.39362" lon="5.87601">
        <ele>198</ele>
        <time>2018-11-04T14:01:19Z</time>
      </trkpt>
      <trkpt lat="50.39364" lon="5.87601">
        <ele>197</ele>
        <time>2018-11-04T14:01:29Z</time>
      </trkpt>
      <trkpt lat="50.39366" lon="5.87602">
        <ele>198</ele>
        <time>2018-11-04T14:01:39Z</time>
      </trkpt>
      <trkpt lat="50.39368" lon="5.87601">
        <ele>198</ele>
        <time>2018-11-04T14:01:49Z</time>
      </trkpt>
      <trkpt lat="50.39368" lon="5.87603">
        <ele>198</ele>
        <time>2018-11-04T14:02:00Z</time>
      </trkpt>
      <trkpt lat="50.39363" lon="5.87599">
        <ele>198</ele>
        <time>2018-11-04T14:02:11Z</time>
      </trkpt>
      <trkpt lat="50.39361" lon="5.87599">
        <ele>197</ele>
        <time>2018-11-04T14:02:21Z</time>
      </trkpt>
      <trkpt lat="50.39359" lon="5.87598">
        <ele>198</ele>
        <time>2018-11-04T14:02:31Z</time>
      </trkpt>
      <trkpt lat="50.39365" lon="5.87599">
        <ele>198</ele>
        <time>2018-11-04T14:02:41Z</time>
      </trkpt>
      <trkpt lat="50.39367" lon="5.876">
        <ele>198</ele>
        <time>2018-11-04T14:02:51Z</time>
      </trkpt>
      <trkpt lat="50.39368" lon="5.87603">
        <ele>198</ele>
        <time>2018-11-04T14:03:02Z</time>
      </trkpt>
      <trkpt lat="50.39369" lon="5.87604">
        <ele>198</ele>
        <time>2018-11-04T14:03:12Z</time>
      </trkpt>
      <trkpt lat="50.3937" lon="5.87599">
        <ele>198</ele>
        <time>2018-11-04T14:03:22Z</time>
      </trkpt>
      <trkpt lat="50.39369" lon="5.87601">
        <ele>198</ele>
        <time>2018-11-04T14:03:32Z</time>
      </trkpt>
      <trkpt lat="50.39372" lon="5.87606">
        <ele>198</ele>
        <time>2018-11-04T14:03:43Z</time>
      </trkpt>
      <trkpt lat="50.39371" lon="5.87605">
        <ele>197</ele>
        <time>2018-11-04T14:03:54Z</time>
      </trkpt>
      <trkpt lat="50.39368" lon="5.876">
        <ele>198</ele>
        <time>2018-11-04T14:04:04Z</time>
      </trkpt>
      <trkpt lat="50.39369" lon="5.87599">
        <ele>198</ele>
        <time>2018-11-04T14:04:15Z</time>
      </trkpt>
      <trkpt lat="50.39368" lon="5.87598">
        <ele>198</ele>
        <time>2018-11-04T14:04:26Z</time>
      </trkpt>
      <trkpt lat="50.39369" lon="5.876">
        <ele>198</ele>
        <time>2018-11-04T14:04:36Z</time>
      </trkpt>
      <trkpt lat="50.39367" lon="5.87604">
        <ele>198</ele>
        <time>2018-11-04T14:04:46Z</time>
      </trkpt>
      <trkpt lat="50.39369" lon="5.87622">
        <ele>197</ele>
        <time>2018-11-04T14:04:57Z</time>
      </trkpt>
      <trkpt lat="50.39375" lon="5.87625">
        <ele>197</ele>
        <time>2018-11-04T14:05:07Z</time>
      </trkpt>
      <trkpt lat="50.39378" lon="5.87627">
        <ele>197</ele>
        <time>2018-11-04T14:05:17Z</time>
      </trkpt>
      <trkpt lat="50.3938" lon="5.87628">
        <ele>197</ele>
        <time>2018-11-04T14:05:27Z</time>
      </trkpt>
      <trkpt lat="50.3938" lon="5.87628">
        <ele>197</ele>
        <time>2018-11-04T14:05:38Z</time>
      </trkpt>
      <trkpt lat="50.39377" lon="5.87626">
        <ele>197</ele>
        <time>2018-11-04T14:05:49Z</time>
      </trkpt>
      <trkpt lat="50.39374" lon="5.87623">
        <ele>197</ele>
        <time>2018-11-04T14:05:59Z</time>
      </trkpt>
      <trkpt lat="50.39372" lon="5.87621">
        <ele>197</ele>
        <time>2018-11-04T14:06:09Z</time>
      </trkpt>
      <trkpt lat="50.39371" lon="5.8762">
        <ele>197</ele>
        <time>2018-11-04T14:06:19Z</time>
      </trkpt>
      <trkpt lat="50.39371" lon="5.87619">
        <ele>198</ele>
        <time>2018-11-04T14:06:30Z</time>
      </trkpt>
      <trkpt lat="50.39373" lon="5.87619">
        <ele>197</ele>
        <time>2018-11-04T14:06:40Z</time>
      </trkpt>
      <trkpt lat="50.39376" lon="5.8762">
        <ele>197</ele>
        <time>2018-11-04T14:06:50Z</time>
      </trkpt>
      <trkpt lat="50.39377" lon="5.8762">
        <ele>198</ele>
        <time>2018-11-04T14:07:02Z</time>
      </trkpt>
      <trkpt lat="50.39376" lon="5.87618">
        <ele>197</ele>
        <time>2018-11-04T14:07:12Z</time>
      </trkpt>
      <trkpt lat="50.39374" lon="5.87616">
        <ele>198</ele>
        <time>2018-11-04T14:07:22Z</time>
      </trkpt>
      <trkpt lat="50.39375" lon="5.87616">
        <ele>198</ele>
        <time>2018-11-04T14:07:33Z</time>
      </trkpt>
      <trkpt lat="50.39377" lon="5.87617">
        <ele>199</ele>
        <time>2018-11-04T14:07:45Z</time>
      </trkpt>
      <trkpt lat="50.39378" lon="5.87618">
        <ele>198</ele>
        <time>2018-11-04T14:07:56Z</time>
      </trkpt>
      <trkpt lat="50.39377" lon="5.8762">
        <ele>198</ele>
        <time>2018-11-04T14:08:06Z</time>
      </trkpt>
      <trkpt lat="50.39377" lon="5.87621">
        <ele>199</ele>
        <time>2018-11-04T14:08:17Z</time>
      </trkpt>
      <trkpt lat="50.39375" lon="5.8762">
        <ele>198</ele>
        <time>2018-11-04T14:08:27Z</time>
      </trkpt>
      <trkpt lat="50.39368" lon="5.87623">
        <ele>199</ele>
        <time>2018-11-04T14:08:37Z</time>
      </trkpt>
      <trkpt lat="50.39362" lon="5.87616">
        <ele>199</ele>
        <time>2018-11-04T14:08:47Z</time>
      </trkpt>
      <trkpt lat="50.39359" lon="5.87603">
        <ele>201</ele>
        <time>2018-11-04T14:08:57Z</time>
      </trkpt>
      <trkpt lat="50.39357" lon="5.87589">
        <ele>202</ele>
        <time>2018-11-04T14:09:08Z</time>
      </trkpt>
      <trkpt lat="50.39353" lon="5.87577">
        <ele>203</ele>
        <time>2018-11-04T14:09:19Z</time>
      </trkpt>
      <trkpt lat="50.3935" lon="5.87569">
        <ele>204</ele>
        <time>2018-11-04T14:09:29Z</time>
      </trkpt>
      <trkpt lat="50.39346" lon="5.87571">
        <ele>206</ele>
        <time>2018-11-04T14:09:40Z</time>
      </trkpt>
      <trkpt lat="50.39341" lon="5.87577">
        <ele>208</ele>
        <time>2018-11-04T14:09:51Z</time>
      </trkpt>
      <trkpt lat="50.39338" lon="5.87582">
        <ele>209</ele>
        <time>2018-11-04T14:10:01Z</time>
      </trkpt>
      <trkpt lat="50.39337" lon="5.87582">
        <ele>209</ele>
        <time>2018-11-04T14:10:14Z</time>
      </trkpt>
      <trkpt lat="50.39338" lon="5.8759">
        <ele>209</ele>
        <time>2018-11-04T14:10:24Z</time>
      </trkpt>
      <trkpt lat="50.39339" lon="5.87606">
        <ele>209</ele>
        <time>2018-11-04T14:10:35Z</time>
      </trkpt>
      <trkpt lat="50.3934" lon="5.87617">
        <ele>210</ele>
        <time>2018-11-04T14:10:45Z</time>
      </trkpt>
      <trkpt lat="50.39341" lon="5.87619">
        <ele>211</ele>
        <time>2018-11-04T14:10:56Z</time>
      </trkpt>
      <trkpt lat="50.39343" lon="5.87633">
        <ele>212</ele>
        <time>2018-11-04T14:11:07Z</time>
      </trkpt>
      <trkpt lat="50.39344" lon="5.87648">
        <ele>213</ele>
        <time>2018-11-04T14:11:17Z</time>
      </trkpt>
      <trkpt lat="50.39341" lon="5.8765">
        <ele>214</ele>
        <time>2018-11-04T14:11:27Z</time>
      </trkpt>
      <trkpt lat="50.39339" lon="5.87653">
        <ele>214</ele>
        <time>2018-11-04T14:11:38Z</time>
      </trkpt>
      <trkpt lat="50.39338" lon="5.87654">
        <ele>214</ele>
        <time>2018-11-04T14:11:48Z</time>
      </trkpt>
      <trkpt lat="50.39336" lon="5.87655">
        <ele>214</ele>
        <time>2018-11-04T14:11:58Z</time>
      </trkpt>
      <trkpt lat="50.39336" lon="5.87655">
        <ele>214</ele>
        <time>2018-11-04T14:12:09Z</time>
      </trkpt>
      <trkpt lat="50.39335" lon="5.87656">
        <ele>214</ele>
        <time>2018-11-04T14:12:20Z</time>
      </trkpt>
      <trkpt lat="50.39335" lon="5.87656">
        <ele>214</ele>
        <time>2018-11-04T14:12:32Z</time>
      </trkpt>
      <trkpt lat="50.39335" lon="5.87657">
        <ele>214</ele>
        <time>2018-11-04T14:12:46Z</time>
      </trkpt>
      <trkpt lat="50.39334" lon="5.87657">
        <ele>214</ele>
        <time>2018-11-04T14:12:58Z</time>
      </trkpt>
      <trkpt lat="50.39334" lon="5.87656">
        <ele>215</ele>
        <time>2018-11-04T14:13:14Z</time>
      </trkpt>
      <trkpt lat="50.39335" lon="5.87657">
        <ele>215</ele>
        <time>2018-11-04T14:13:24Z</time>
      </trkpt>
      <trkpt lat="50.39336" lon="5.87658">
        <ele>214</ele>
        <time>2018-11-04T14:13:35Z</time>
      </trkpt>
      <trkpt lat="50.39331" lon="5.87663">
        <ele>216</ele>
        <time>2018-11-04T14:13:46Z</time>
      </trkpt>
      <trkpt lat="50.39325" lon="5.87673">
        <ele>215</ele>
        <time>2018-11-04T14:13:56Z</time>
      </trkpt>
      <trkpt lat="50.3932" lon="5.87684">
        <ele>215</ele>
        <time>2018-11-04T14:14:06Z</time>
      </trkpt>
      <trkpt lat="50.39314" lon="5.87697">
        <ele>214</ele>
        <time>2018-11-04T14:14:17Z</time>
      </trkpt>
      <trkpt lat="50.39311" lon="5.87711">
        <ele>214</ele>
        <time>2018-11-04T14:14:28Z</time>
      </trkpt>
      <trkpt lat="50.39307" lon="5.87723">
        <ele>214</ele>
        <time>2018-11-04T14:14:38Z</time>
      </trkpt>
      <trkpt lat="50.39302" lon="5.87737">
        <ele>214</ele>
        <time>2018-11-04T14:14:49Z</time>
      </trkpt>
      <trkpt lat="50.39296" lon="5.87751">
        <ele>214</ele>
        <time>2018-11-04T14:15:00Z</time>
      </trkpt>
      <trkpt lat="50.39289" lon="5.87764">
        <ele>214</ele>
        <time>2018-11-04T14:15:11Z</time>
      </trkpt>
      <trkpt lat="50.39281" lon="5.87774">
        <ele>214</ele>
        <time>2018-11-04T14:15:21Z</time>
      </trkpt>
      <trkpt lat="50.39282" lon="5.8778">
        <ele>214</ele>
        <time>2018-11-04T14:15:31Z</time>
      </trkpt>
      <trkpt lat="50.39281" lon="5.87785">
        <ele>214</ele>
        <time>2018-11-04T14:15:41Z</time>
      </trkpt>
      <trkpt lat="50.39279" lon="5.8778">
        <ele>214</ele>
        <time>2018-11-04T14:15:52Z</time>
      </trkpt>
      <trkpt lat="50.39271" lon="5.87777">
        <ele>215</ele>
        <time>2018-11-04T14:16:03Z</time>
      </trkpt>
      <trkpt lat="50.39262" lon="5.87772">
        <ele>214</ele>
        <time>2018-11-04T14:16:13Z</time>
      </trkpt>
      <trkpt lat="50.39252" lon="5.87768">
        <ele>214</ele>
        <time>2018-11-04T14:16:24Z</time>
      </trkpt>
      <trkpt lat="50.39253" lon="5.87768">
        <ele>213</ele>
        <time>2018-11-04T14:16:34Z</time>
      </trkpt>
      <trkpt lat="50.39259" lon="5.87769">
        <ele>214</ele>
        <time>2018-11-04T14:16:44Z</time>
      </trkpt>
      <trkpt lat="50.39266" lon="5.87762">
        <ele>214</ele>
        <time>2018-11-04T14:16:54Z</time>
      </trkpt>
      <trkpt lat="50.39276" lon="5.87754">
        <ele>214</ele>
        <time>2018-11-04T14:17:05Z</time>
      </trkpt>
      <trkpt lat="50.39284" lon="5.87746">
        <ele>214</ele>
        <time>2018-11-04T14:17:15Z</time>
      </trkpt>
      <trkpt lat="50.39291" lon="5.87736">
        <ele>215</ele>
        <time>2018-11-04T14:17:25Z</time>
      </trkpt>
      <trkpt lat="50.39299" lon="5.87726">
        <ele>215</ele>
        <time>2018-11-04T14:17:35Z</time>
      </trkpt>
      <trkpt lat="50.39305" lon="5.87712">
        <ele>215</ele>
        <time>2018-11-04T14:17:46Z</time>
      </trkpt>
      <trkpt lat="50.39315" lon="5.87703">
        <ele>215</ele>
        <time>2018-11-04T14:17:57Z</time>
      </trkpt>
      <trkpt lat="50.3932" lon="5.87698">
        <ele>215</ele>
        <time>2018-11-04T14:18:07Z</time>
      </trkpt>
      <trkpt lat="50.39321" lon="5.87696">
        <ele>215</ele>
        <time>2018-11-04T14:18:17Z</time>
      </trkpt>
      <trkpt lat="50.39323" lon="5.87691">
        <ele>215</ele>
        <time>2018-11-04T14:18:28Z</time>
      </trkpt>
      <trkpt lat="50.39321" lon="5.87691">
        <ele>214</ele>
        <time>2018-11-04T14:18:38Z</time>
      </trkpt>
      <trkpt lat="50.3932" lon="5.87692">
        <ele>215</ele>
        <time>2018-11-04T14:18:49Z</time>
      </trkpt>
      <trkpt lat="50.3932" lon="5.87693">
        <ele>215</ele>
        <time>2018-11-04T14:19:00Z</time>
      </trkpt>
      <trkpt lat="50.3932" lon="5.87692">
        <ele>215</ele>
        <time>2018-11-04T14:19:16Z</time>
      </trkpt>
      <trkpt lat="50.39318" lon="5.87687">
        <ele>217</ele>
        <time>2018-11-04T14:19:27Z</time>
      </trkpt>
      <trkpt lat="50.39312" lon="5.87681">
        <ele>216</ele>
        <time>2018-11-04T14:19:37Z</time>
      </trkpt>
      <trkpt lat="50.39303" lon="5.87669">
        <ele>214</ele>
        <time>2018-11-04T14:19:48Z</time>
      </trkpt>
      <trkpt lat="50.39294" lon="5.87654">
        <ele>214</ele>
        <time>2018-11-04T14:19:59Z</time>
      </trkpt>
      <trkpt lat="50.39288" lon="5.87638">
        <ele>214</ele>
        <time>2018-11-04T14:20:10Z</time>
      </trkpt>
      <trkpt lat="50.39285" lon="5.8763">
        <ele>213</ele>
        <time>2018-11-04T14:20:20Z</time>
      </trkpt>
      <trkpt lat="50.39286" lon="5.8763">
        <ele>214</ele>
        <time>2018-11-04T14:20:31Z</time>
      </trkpt>
      <trkpt lat="50.39286" lon="5.8763">
        <ele>214</ele>
        <time>2018-11-04T14:20:41Z</time>
      </trkpt>
      <trkpt lat="50.39285" lon="5.87631">
        <ele>214</ele>
        <time>2018-11-04T14:20:52Z</time>
      </trkpt>
      <trkpt lat="50.39284" lon="5.87631">
        <ele>214</ele>
        <time>2018-11-04T14:21:02Z</time>
      </trkpt>
      <trkpt lat="50.3928" lon="5.87626">
        <ele>214</ele>
        <time>2018-11-04T14:21:13Z</time>
      </trkpt>
      <trkpt lat="50.39279" lon="5.87626">
        <ele>214</ele>
        <time>2018-11-04T14:21:24Z</time>
      </trkpt>
      <trkpt lat="50.3928" lon="5.87625">
        <ele>214</ele>
        <time>2018-11-04T14:21:35Z</time>
      </trkpt>
      <trkpt lat="50.39281" lon="5.87625">
        <ele>214</ele>
        <time>2018-11-04T14:21:46Z</time>
      </trkpt>
      <trkpt lat="50.39283" lon="5.87627">
        <ele>214</ele>
        <time>2018-11-04T14:21:57Z</time>
      </trkpt>
      <trkpt lat="50.39281" lon="5.8763">
        <ele>214</ele>
        <time>2018-11-04T14:22:07Z</time>
      </trkpt>
      <trkpt lat="50.39282" lon="5.87631">
        <ele>215</ele>
        <time>2018-11-04T14:22:19Z</time>
      </trkpt>
      <trkpt lat="50.39283" lon="5.87632">
        <ele>215</ele>
        <time>2018-11-04T14:22:30Z</time>
      </trkpt>
      <trkpt lat="50.39282" lon="5.8764">
        <ele>214</ele>
        <time>2018-11-04T14:22:41Z</time>
      </trkpt>
      <trkpt lat="50.39281" lon="5.87635">
        <ele>215</ele>
        <time>2018-11-04T14:22:52Z</time>
      </trkpt>
      <trkpt lat="50.39281" lon="5.87637">
        <ele>215</ele>
        <time>2018-11-04T14:23:02Z</time>
      </trkpt>
      <trkpt lat="50.39285" lon="5.87647">
        <ele>215</ele>
        <time>2018-11-04T14:23:12Z</time>
      </trkpt>
      <trkpt lat="50.39292" lon="5.87659">
        <ele>214</ele>
        <time>2018-11-04T14:23:23Z</time>
      </trkpt>
      <trkpt lat="50.393" lon="5.87671">
        <ele>215</ele>
        <time>2018-11-04T14:23:33Z</time>
      </trkpt>
      <trkpt lat="50.3931" lon="5.8768">
        <ele>216</ele>
        <time>2018-11-04T14:23:44Z</time>
      </trkpt>
      <trkpt lat="50.39317" lon="5.87675">
        <ele>217</ele>
        <time>2018-11-04T14:23:54Z</time>
      </trkpt>
      <trkpt lat="50.39326" lon="5.87665">
        <ele>217</ele>
        <time>2018-11-04T14:24:05Z</time>
      </trkpt>
      <trkpt lat="50.39334" lon="5.87668">
        <ele>217</ele>
        <time>2018-11-04T14:24:15Z</time>
      </trkpt>
      <trkpt lat="50.3934" lon="5.87682">
        <ele>217</ele>
        <time>2018-11-04T14:24:25Z</time>
      </trkpt>
      <trkpt lat="50.39346" lon="5.87697">
        <ele>218</ele>
        <time>2018-11-04T14:24:35Z</time>
      </trkpt>
      <trkpt lat="50.39352" lon="5.87712">
        <ele>218</ele>
        <time>2018-11-04T14:24:46Z</time>
      </trkpt>
      <trkpt lat="50.39357" lon="5.87724">
        <ele>219</ele>
        <time>2018-11-04T14:24:56Z</time>
      </trkpt>
      <trkpt lat="50.3936" lon="5.8774">
        <ele>219</ele>
        <time>2018-11-04T14:25:07Z</time>
      </trkpt>
      <trkpt lat="50.39363" lon="5.8775">
        <ele>219</ele>
        <time>2018-11-04T14:25:18Z</time>
      </trkpt>
      <trkpt lat="50.39368" lon="5.87753">
        <ele>220</ele>
        <time>2018-11-04T14:25:28Z</time>
      </trkpt>
      <trkpt lat="50.39372" lon="5.87754">
        <ele>220</ele>
        <time>2018-11-04T14:25:39Z</time>
      </trkpt>
      <trkpt lat="50.39377" lon="5.87764">
        <ele>220</ele>
        <time>2018-11-04T14:25:49Z</time>
      </trkpt>
      <trkpt lat="50.39382" lon="5.87776">
        <ele>221</ele>
        <time>2018-11-04T14:26:00Z</time>
      </trkpt>
      <trkpt lat="50.39384" lon="5.87782">
        <ele>221</ele>
        <time>2018-11-04T14:26:11Z</time>
      </trkpt>
      <trkpt lat="50.39389" lon="5.87791">
        <ele>221</ele>
        <time>2018-11-04T14:26:21Z</time>
      </trkpt>
      <trkpt lat="50.39397" lon="5.87801">
        <ele>221</ele>
        <time>2018-11-04T14:26:32Z</time>
      </trkpt>
      <trkpt lat="50.39407" lon="5.87811">
        <ele>220</ele>
        <time>2018-11-04T14:26:43Z</time>
      </trkpt>
      <trkpt lat="50.39415" lon="5.87818">
        <ele>220</ele>
        <time>2018-11-04T14:26:53Z</time>
      </trkpt>
      <trkpt lat="50.39425" lon="5.87831">
        <ele>219</ele>
        <time>2018-11-04T14:27:04Z</time>
      </trkpt>
      <trkpt lat="50.39435" lon="5.87842">
        <ele>219</ele>
        <time>2018-11-04T14:27:15Z</time>
      </trkpt>
      <trkpt lat="50.39445" lon="5.87852">
        <ele>219</ele>
        <time>2018-11-04T14:27:25Z</time>
      </trkpt>
      <trkpt lat="50.39458" lon="5.87862">
        <ele>219</ele>
        <time>2018-11-04T14:27:35Z</time>
      </trkpt>
      <trkpt lat="50.39469" lon="5.87872">
        <ele>219</ele>
        <time>2018-11-04T14:27:46Z</time>
      </trkpt>
      <trkpt lat="50.39473" lon="5.87879">
        <ele>219</ele>
        <time>2018-11-04T14:27:56Z</time>
      </trkpt>
      <trkpt lat="50.39476" lon="5.87891">
        <ele>219</ele>
        <time>2018-11-04T14:28:07Z</time>
      </trkpt>
      <trkpt lat="50.39475" lon="5.87894">
        <ele>220</ele>
        <time>2018-11-04T14:28:18Z</time>
      </trkpt>
      <trkpt lat="50.39476" lon="5.87895">
        <ele>221</ele>
        <time>2018-11-04T14:28:29Z</time>
      </trkpt>
      <trkpt lat="50.39476" lon="5.87896">
        <ele>223</ele>
        <time>2018-11-04T14:28:40Z</time>
      </trkpt>
      <trkpt lat="50.39475" lon="5.87898">
        <ele>225</ele>
        <time>2018-11-04T14:28:51Z</time>
      </trkpt>
      <trkpt lat="50.39471" lon="5.87894">
        <ele>227</ele>
        <time>2018-11-04T14:29:02Z</time>
      </trkpt>
      <trkpt lat="50.39466" lon="5.87892">
        <ele>229</ele>
        <time>2018-11-04T14:29:12Z</time>
      </trkpt>
      <trkpt lat="50.3946" lon="5.87888">
        <ele>230</ele>
        <time>2018-11-04T14:29:23Z</time>
      </trkpt>
      <trkpt lat="50.39452" lon="5.87884">
        <ele>231</ele>
        <time>2018-11-04T14:29:34Z</time>
      </trkpt>
      <trkpt lat="50.39444" lon="5.87879">
        <ele>232</ele>
        <time>2018-11-04T14:29:44Z</time>
      </trkpt>
      <trkpt lat="50.39436" lon="5.87873">
        <ele>233</ele>
        <time>2018-11-04T14:29:55Z</time>
      </trkpt>
      <trkpt lat="50.39429" lon="5.87871">
        <ele>234</ele>
        <time>2018-11-04T14:30:05Z</time>
      </trkpt>
      <trkpt lat="50.39423" lon="5.8787">
        <ele>236</ele>
        <time>2018-11-04T14:30:16Z</time>
      </trkpt>
      <trkpt lat="50.39415" lon="5.87868">
        <ele>237</ele>
        <time>2018-11-04T14:30:26Z</time>
      </trkpt>
      <trkpt lat="50.39409" lon="5.87864">
        <ele>238</ele>
        <time>2018-11-04T14:30:37Z</time>
      </trkpt>
      <trkpt lat="50.39402" lon="5.87862">
        <ele>240</ele>
        <time>2018-11-04T14:30:47Z</time>
      </trkpt>
      <trkpt lat="50.39399" lon="5.87864">
        <ele>242</ele>
        <time>2018-11-04T14:30:57Z</time>
      </trkpt>
      <trkpt lat="50.394" lon="5.87871">
        <ele>242</ele>
        <time>2018-11-04T14:31:08Z</time>
      </trkpt>
      <trkpt lat="50.39399" lon="5.87873">
        <ele>243</ele>
        <time>2018-11-04T14:31:18Z</time>
      </trkpt>
      <trkpt lat="50.39402" lon="5.87881">
        <ele>244</ele>
        <time>2018-11-04T14:31:28Z</time>
      </trkpt>
      <trkpt lat="50.39407" lon="5.87891">
        <ele>245</ele>
        <time>2018-11-04T14:31:39Z</time>
      </trkpt>
      <trkpt lat="50.39411" lon="5.87899">
        <ele>247</ele>
        <time>2018-11-04T14:31:49Z</time>
      </trkpt>
      <trkpt lat="50.39415" lon="5.87908">
        <ele>248</ele>
        <time>2018-11-04T14:32:00Z</time>
      </trkpt>
      <trkpt lat="50.39418" lon="5.87915">
        <ele>249</ele>
        <time>2018-11-04T14:32:11Z</time>
      </trkpt>
      <trkpt lat="50.3942" lon="5.87922">
        <ele>250</ele>
        <time>2018-11-04T14:32:21Z</time>
      </trkpt>
      <trkpt lat="50.39415" lon="5.87921">
        <ele>250</ele>
        <time>2018-11-04T14:32:32Z</time>
      </trkpt>
      <trkpt lat="50.39413" lon="5.87921">
        <ele>250</ele>
        <time>2018-11-04T14:32:44Z</time>
      </trkpt>
      <trkpt lat="50.39414" lon="5.87922">
        <ele>250</ele>
        <time>2018-11-04T14:32:54Z</time>
      </trkpt>
      <trkpt lat="50.39417" lon="5.87923">
        <ele>249</ele>
        <time>2018-11-04T14:33:05Z</time>
      </trkpt>
      <trkpt lat="50.39422" lon="5.87926">
        <ele>250</ele>
        <time>2018-11-04T14:33:15Z</time>
      </trkpt>
      <trkpt lat="50.39423" lon="5.8793">
        <ele>249</ele>
        <time>2018-11-04T14:33:26Z</time>
      </trkpt>
      <trkpt lat="50.39421" lon="5.87929">
        <ele>249</ele>
        <time>2018-11-04T14:33:36Z</time>
      </trkpt>
      <trkpt lat="50.3942" lon="5.8793">
        <ele>249</ele>
        <time>2018-11-04T14:33:46Z</time>
      </trkpt>
      <trkpt lat="50.39419" lon="5.8793">
        <ele>249</ele>
        <time>2018-11-04T14:33:57Z</time>
      </trkpt>
      <trkpt lat="50.39419" lon="5.87927">
        <ele>249</ele>
        <time>2018-11-04T14:34:07Z</time>
      </trkpt>
      <trkpt lat="50.39421" lon="5.87925">
        <ele>249</ele>
        <time>2018-11-04T14:34:17Z</time>
      </trkpt>
      <trkpt lat="50.39418" lon="5.87921">
        <ele>250</ele>
        <time>2018-11-04T14:34:28Z</time>
      </trkpt>
      <trkpt lat="50.39417" lon="5.87917">
        <ele>250</ele>
        <time>2018-11-04T14:34:38Z</time>
      </trkpt>
      <trkpt lat="50.3942" lon="5.87921">
        <ele>251</ele>
        <time>2018-11-04T14:34:49Z</time>
      </trkpt>
      <trkpt lat="50.39423" lon="5.87928">
        <ele>252</ele>
        <time>2018-11-04T14:35:00Z</time>
      </trkpt>
      <trkpt lat="50.39426" lon="5.87937">
        <ele>254</ele>
        <time>2018-11-04T14:35:11Z</time>
      </trkpt>
      <trkpt lat="50.39429" lon="5.87945">
        <ele>256</ele>
        <time>2018-11-04T14:35:21Z</time>
      </trkpt>
      <trkpt lat="50.3943" lon="5.87946">
        <ele>257</ele>
        <time>2018-11-04T14:35:32Z</time>
      </trkpt>
      <trkpt lat="50.39429" lon="5.87946">
        <ele>258</ele>
        <time>2018-11-04T14:35:42Z</time>
      </trkpt>
      <trkpt lat="50.39425" lon="5.87946">
        <ele>260</ele>
        <time>2018-11-04T14:35:53Z</time>
      </trkpt>
      <trkpt lat="50.39419" lon="5.87945">
        <ele>262</ele>
        <time>2018-11-04T14:36:04Z</time>
      </trkpt>
      <trkpt lat="50.39415" lon="5.87944">
        <ele>263</ele>
        <time>2018-11-04T14:36:15Z</time>
      </trkpt>
      <trkpt lat="50.3941" lon="5.87942">
        <ele>264</ele>
        <time>2018-11-04T14:36:25Z</time>
      </trkpt>
      <trkpt lat="50.39404" lon="5.87942">
        <ele>266</ele>
        <time>2018-11-04T14:36:36Z</time>
      </trkpt>
      <trkpt lat="50.39398" lon="5.87943">
        <ele>267</ele>
        <time>2018-11-04T14:36:46Z</time>
      </trkpt>
      <trkpt lat="50.39392" lon="5.87947">
        <ele>269</ele>
        <time>2018-11-04T14:36:56Z</time>
      </trkpt>
      <trkpt lat="50.39392" lon="5.87955">
        <ele>271</ele>
        <time>2018-11-04T14:37:07Z</time>
      </trkpt>
      <trkpt lat="50.39392" lon="5.8796">
        <ele>270</ele>
        <time>2018-11-04T14:37:17Z</time>
      </trkpt>
      <trkpt lat="50.39394" lon="5.87961">
        <ele>271</ele>
        <time>2018-11-04T14:37:27Z</time>
      </trkpt>
      <trkpt lat="50.39396" lon="5.87965">
        <ele>271</ele>
        <time>2018-11-04T14:37:38Z</time>
      </trkpt>
      <trkpt lat="50.39394" lon="5.87967">
        <ele>271</ele>
        <time>2018-11-04T14:37:48Z</time>
      </trkpt>
      <trkpt lat="50.39394" lon="5.87973">
        <ele>272</ele>
        <time>2018-11-04T14:37:58Z</time>
      </trkpt>
      <trkpt lat="50.39395" lon="5.8798">
        <ele>273</ele>
        <time>2018-11-04T14:38:08Z</time>
      </trkpt>
      <trkpt lat="50.39398" lon="5.87986">
        <ele>275</ele>
        <time>2018-11-04T14:38:19Z</time>
      </trkpt>
      <trkpt lat="50.39399" lon="5.8799">
        <ele>276</ele>
        <time>2018-11-04T14:38:29Z</time>
      </trkpt>
      <trkpt lat="50.39401" lon="5.87995">
        <ele>278</ele>
        <time>2018-11-04T14:38:39Z</time>
      </trkpt>
      <trkpt lat="50.39406" lon="5.87998">
        <ele>280</ele>
        <time>2018-11-04T14:38:50Z</time>
      </trkpt>
      <trkpt lat="50.39408" lon="5.88004">
        <ele>281</ele>
        <time>2018-11-04T14:39:01Z</time>
      </trkpt>
      <trkpt lat="50.3941" lon="5.88008">
        <ele>283</ele>
        <time>2018-11-04T14:39:11Z</time>
      </trkpt>
      <trkpt lat="50.39412" lon="5.88009">
        <ele>284</ele>
        <time>2018-11-04T14:39:22Z</time>
      </trkpt>
      <trkpt lat="50.39415" lon="5.88011">
        <ele>284</ele>
        <time>2018-11-04T14:39:32Z</time>
      </trkpt>
      <trkpt lat="50.39416" lon="5.88014">
        <ele>285</ele>
        <time>2018-11-04T14:39:42Z</time>
      </trkpt>
      <trkpt lat="50.39418" lon="5.88016">
        <ele>285</ele>
        <time>2018-11-04T14:39:52Z</time>
      </trkpt>
      <trkpt lat="50.39421" lon="5.88018">
        <ele>286</ele>
        <time>2018-11-04T14:40:03Z</time>
      </trkpt>
      <trkpt lat="50.39423" lon="5.88023">
        <ele>287</ele>
        <time>2018-11-04T14:40:13Z</time>
      </trkpt>
      <trkpt lat="50.39423" lon="5.88025">
        <ele>289</ele>
        <time>2018-11-04T14:40:23Z</time>
      </trkpt>
      <trkpt lat="50.39425" lon="5.88031">
        <ele>290</ele>
        <time>2018-11-04T14:40:34Z</time>
      </trkpt>
      <trkpt lat="50.39429" lon="5.88032">
        <ele>291</ele>
        <time>2018-11-04T14:40:44Z</time>
      </trkpt>
      <trkpt lat="50.39433" lon="5.88035">
        <ele>292</ele>
        <time>2018-11-04T14:40:54Z</time>
      </trkpt>
      <trkpt lat="50.39437" lon="5.88037">
        <ele>293</ele>
        <time>2018-11-04T14:41:04Z</time>
      </trkpt>
      <trkpt lat="50.39443" lon="5.88041">
        <ele>294</ele>
        <time>2018-11-04T14:41:14Z</time>
      </trkpt>
      <trkpt lat="50.39447" lon="5.88046">
        <ele>295</ele>
        <time>2018-11-04T14:41:26Z</time>
      </trkpt>
      <trkpt lat="50.39449" lon="5.88048">
        <ele>295</ele>
        <time>2018-11-04T14:41:36Z</time>
      </trkpt>
      <trkpt lat="50.3945" lon="5.88048">
        <ele>296</ele>
        <time>2018-11-04T14:41:47Z</time>
      </trkpt>
      <trkpt lat="50.39452" lon="5.88048">
        <ele>295</ele>
        <time>2018-11-04T14:41:57Z</time>
      </trkpt>
      <trkpt lat="50.39455" lon="5.88048">
        <ele>295</ele>
        <time>2018-11-04T14:42:08Z</time>
      </trkpt>
      <trkpt lat="50.39457" lon="5.88048">
        <ele>296</ele>
        <time>2018-11-04T14:42:19Z</time>
      </trkpt>
      <trkpt lat="50.39459" lon="5.8805">
        <ele>295</ele>
        <time>2018-11-04T14:42:30Z</time>
      </trkpt>
      <trkpt lat="50.39458" lon="5.8805">
        <ele>296</ele>
        <time>2018-11-04T14:42:40Z</time>
      </trkpt>
      <trkpt lat="50.39458" lon="5.88049">
        <ele>296</ele>
        <time>2018-11-04T14:42:51Z</time>
      </trkpt>
      <trkpt lat="50.39454" lon="5.88047">
        <ele>296</ele>
        <time>2018-11-04T14:43:02Z</time>
      </trkpt>
      <trkpt lat="50.39453" lon="5.88047">
        <ele>296</ele>
        <time>2018-11-04T14:43:13Z</time>
      </trkpt>
      <trkpt lat="50.39452" lon="5.88048">
        <ele>296</ele>
        <time>2018-11-04T14:43:23Z</time>
      </trkpt>
      <trkpt lat="50.3945" lon="5.8805">
        <ele>296</ele>
        <time>2018-11-04T14:43:34Z</time>
      </trkpt>
      <trkpt lat="50.39445" lon="5.88052">
        <ele>296</ele>
        <time>2018-11-04T14:43:44Z</time>
      </trkpt>
      <trkpt lat="50.39439" lon="5.88052">
        <ele>297</ele>
        <time>2018-11-04T14:43:54Z</time>
      </trkpt>
      <trkpt lat="50.39436" lon="5.88052">
        <ele>298</ele>
        <time>2018-11-04T14:44:04Z</time>
      </trkpt>
      <trkpt lat="50.39433" lon="5.8805">
        <ele>299</ele>
        <time>2018-11-04T14:44:15Z</time>
      </trkpt>
      <trkpt lat="50.39432" lon="5.88045">
        <ele>299</ele>
        <time>2018-11-04T14:44:26Z</time>
      </trkpt>
      <trkpt lat="50.39433" lon="5.88044">
        <ele>299</ele>
        <time>2018-11-04T14:44:37Z</time>
      </trkpt>
      <trkpt lat="50.39433" lon="5.88045">
        <ele>299</ele>
        <time>2018-11-04T14:44:47Z</time>
      </trkpt>
      <trkpt lat="50.39438" lon="5.88052">
        <ele>299</ele>
        <time>2018-11-04T14:44:57Z</time>
      </trkpt>
      <trkpt lat="50.39439" lon="5.8806">
        <ele>300</ele>
        <time>2018-11-04T14:45:08Z</time>
      </trkpt>
      <trkpt lat="50.3944" lon="5.88067">
        <ele>301</ele>
        <time>2018-11-04T14:45:18Z</time>
      </trkpt>
      <trkpt lat="50.39439" lon="5.88076">
        <ele>303</ele>
        <time>2018-11-04T14:45:29Z</time>
      </trkpt>
      <trkpt lat="50.39439" lon="5.88085">
        <ele>303</ele>
        <time>2018-11-04T14:45:39Z</time>
      </trkpt>
      <trkpt lat="50.3944" lon="5.88092">
        <ele>305</ele>
        <time>2018-11-04T14:45:49Z</time>
      </trkpt>
      <trkpt lat="50.39439" lon="5.88098">
        <ele>306</ele>
        <time>2018-11-04T14:45:59Z</time>
      </trkpt>
      <trkpt lat="50.39441" lon="5.88107">
        <ele>307</ele>
        <time>2018-11-04T14:46:09Z</time>
      </trkpt>
      <trkpt lat="50.39441" lon="5.88112">
        <ele>308</ele>
        <time>2018-11-04T14:46:19Z</time>
      </trkpt>
      <trkpt lat="50.39442" lon="5.8812">
        <ele>308</ele>
        <time>2018-11-04T14:46:30Z</time>
      </trkpt>
      <trkpt lat="50.39441" lon="5.88126">
        <ele>309</ele>
        <time>2018-11-04T14:46:41Z</time>
      </trkpt>
      <trkpt lat="50.39439" lon="5.88125">
        <ele>310</ele>
        <time>2018-11-04T14:46:51Z</time>
      </trkpt>
      <trkpt lat="50.39438" lon="5.88121">
        <ele>310</ele>
        <time>2018-11-04T14:47:02Z</time>
      </trkpt>
      <trkpt lat="50.39438" lon="5.88117">
        <ele>309</ele>
        <time>2018-11-04T14:47:14Z</time>
      </trkpt>
      <trkpt lat="50.39437" lon="5.88121">
        <ele>309</ele>
        <time>2018-11-04T14:47:25Z</time>
      </trkpt>
      <trkpt lat="50.39438" lon="5.88123">
        <ele>310</ele>
        <time>2018-11-04T14:47:36Z</time>
      </trkpt>
      <trkpt lat="50.39438" lon="5.88131">
        <ele>310</ele>
        <time>2018-11-04T14:47:47Z</time>
      </trkpt>
      <trkpt lat="50.39437" lon="5.88142">
        <ele>311</ele>
        <time>2018-11-04T14:47:57Z</time>
      </trkpt>
      <trkpt lat="50.39434" lon="5.88153">
        <ele>312</ele>
        <time>2018-11-04T14:48:07Z</time>
      </trkpt>
      <trkpt lat="50.39432" lon="5.88163">
        <ele>314</ele>
        <time>2018-11-04T14:48:18Z</time>
      </trkpt>
      <trkpt lat="50.39432" lon="5.8817">
        <ele>316</ele>
        <time>2018-11-04T14:48:28Z</time>
      </trkpt>
      <trkpt lat="50.39431" lon="5.8818">
        <ele>317</ele>
        <time>2018-11-04T14:48:38Z</time>
      </trkpt>
      <trkpt lat="50.39431" lon="5.88186">
        <ele>319</ele>
        <time>2018-11-04T14:48:48Z</time>
      </trkpt>
      <trkpt lat="50.39431" lon="5.88186">
        <ele>319</ele>
        <time>2018-11-04T14:49:00Z</time>
      </trkpt>
      <trkpt lat="50.39431" lon="5.88186">
        <ele>320</ele>
        <time>2018-11-04T14:49:11Z</time>
      </trkpt>
      <trkpt lat="50.39431" lon="5.88184">
        <ele>320</ele>
        <time>2018-11-04T14:49:21Z</time>
      </trkpt>
      <trkpt lat="50.39433" lon="5.88181">
        <ele>320</ele>
        <time>2018-11-04T14:49:32Z</time>
      </trkpt>
      <trkpt lat="50.39437" lon="5.88179">
        <ele>321</ele>
        <time>2018-11-04T14:49:42Z</time>
      </trkpt>
      <trkpt lat="50.39442" lon="5.88176">
        <ele>322</ele>
        <time>2018-11-04T14:49:52Z</time>
      </trkpt>
      <trkpt lat="50.39448" lon="5.88174">
        <ele>324</ele>
        <time>2018-11-04T14:50:02Z</time>
      </trkpt>
      <trkpt lat="50.39453" lon="5.88171">
        <ele>324</ele>
        <time>2018-11-04T14:50:12Z</time>
      </trkpt>
      <trkpt lat="50.39458" lon="5.88168">
        <ele>326</ele>
        <time>2018-11-04T14:50:23Z</time>
      </trkpt>
      <trkpt lat="50.39462" lon="5.88169">
        <ele>328</ele>
        <time>2018-11-04T14:50:34Z</time>
      </trkpt>
      <trkpt lat="50.39465" lon="5.88169">
        <ele>329</ele>
        <time>2018-11-04T14:50:44Z</time>
      </trkpt>
      <trkpt lat="50.39472" lon="5.88166">
        <ele>330</ele>
        <time>2018-11-04T14:50:55Z</time>
      </trkpt>
      <trkpt lat="50.39481" lon="5.88162">
        <ele>331</ele>
        <time>2018-11-04T14:51:06Z</time>
      </trkpt>
      <trkpt lat="50.39487" lon="5.88158">
        <ele>332</ele>
        <time>2018-11-04T14:51:16Z</time>
      </trkpt>
      <trkpt lat="50.39492" lon="5.88157">
        <ele>333</ele>
        <time>2018-11-04T14:51:28Z</time>
      </trkpt>
      <trkpt lat="50.39496" lon="5.88157">
        <ele>332</ele>
        <time>2018-11-04T14:51:39Z</time>
      </trkpt>
      <trkpt lat="50.39498" lon="5.88156">
        <ele>333</ele>
        <time>2018-11-04T14:51:50Z</time>
      </trkpt>
      <trkpt lat="50.39498" lon="5.88156">
        <ele>333</ele>
        <time>2018-11-04T14:52:02Z</time>
      </trkpt>
      <trkpt lat="50.39498" lon="5.88156">
        <ele>332</ele>
        <time>2018-11-04T14:52:13Z</time>
      </trkpt>
      <trkpt lat="50.39498" lon="5.88154">
        <ele>332</ele>
        <time>2018-11-04T14:52:23Z</time>
      </trkpt>
      <trkpt lat="50.39503" lon="5.88158">
        <ele>333</ele>
        <time>2018-11-04T14:52:34Z</time>
      </trkpt>
      <trkpt lat="50.39508" lon="5.8816">
        <ele>333</ele>
        <time>2018-11-04T14:52:44Z</time>
      </trkpt>
      <trkpt lat="50.39508" lon="5.8816">
        <ele>333</ele>
        <time>2018-11-04T14:52:55Z</time>
      </trkpt>
      <trkpt lat="50.39507" lon="5.8816">
        <ele>333</ele>
        <time>2018-11-04T14:53:07Z</time>
      </trkpt>
      <trkpt lat="50.39506" lon="5.88161">
        <ele>333</ele>
        <time>2018-11-04T14:53:18Z</time>
      </trkpt>
      <trkpt lat="50.39505" lon="5.88161">
        <ele>333</ele>
        <time>2018-11-04T14:53:30Z</time>
      </trkpt>
      <trkpt lat="50.39503" lon="5.88162">
        <ele>333</ele>
        <time>2018-11-04T14:53:40Z</time>
      </trkpt>
      <trkpt lat="50.39502" lon="5.88161">
        <ele>333</ele>
        <time>2018-11-04T14:53:52Z</time>
      </trkpt>
      <trkpt lat="50.39503" lon="5.8816">
        <ele>333</ele>
        <time>2018-11-04T14:54:02Z</time>
      </trkpt>
      <trkpt lat="50.39503" lon="5.88158">
        <ele>333</ele>
        <time>2018-11-04T14:54:12Z</time>
      </trkpt>
      <trkpt lat="50.39497" lon="5.88153">
        <ele>333</ele>
        <time>2018-11-04T14:54:22Z</time>
      </trkpt>
      <trkpt lat="50.39492" lon="5.88152">
        <ele>332</ele>
        <time>2018-11-04T14:54:34Z</time>
      </trkpt>
      <trkpt lat="50.39488" lon="5.88153">
        <ele>332</ele>
        <time>2018-11-04T14:54:45Z</time>
      </trkpt>
      <trkpt lat="50.39487" lon="5.88152">
        <ele>332</ele>
        <time>2018-11-04T14:54:56Z</time>
      </trkpt>
      <trkpt lat="50.39483" lon="5.88153">
        <ele>331</ele>
        <time>2018-11-04T14:55:06Z</time>
      </trkpt>
      <trkpt lat="50.39475" lon="5.88159">
        <ele>330</ele>
        <time>2018-11-04T14:55:16Z</time>
      </trkpt>
      <trkpt lat="50.39472" lon="5.88163">
        <ele>331</ele>
        <time>2018-11-04T14:55:27Z</time>
      </trkpt>
      <trkpt lat="50.39468" lon="5.8817">
        <ele>332</ele>
        <time>2018-11-04T14:55:38Z</time>
      </trkpt>
      <trkpt lat="50.39466" lon="5.88178">
        <ele>334</ele>
        <time>2018-11-04T14:55:48Z</time>
      </trkpt>
      <trkpt lat="50.39463" lon="5.88191">
        <ele>335</ele>
        <time>2018-11-04T14:55:59Z</time>
      </trkpt>
      <trkpt lat="50.39462" lon="5.88203">
        <ele>336</ele>
        <time>2018-11-04T14:56:09Z</time>
      </trkpt>
      <trkpt lat="50.39461" lon="5.88217">
        <ele>338</ele>
        <time>2018-11-04T14:56:20Z</time>
      </trkpt>
      <trkpt lat="50.39464" lon="5.88219">
        <ele>339</ele>
        <time>2018-11-04T14:56:31Z</time>
      </trkpt>
      <trkpt lat="50.39467" lon="5.88214">
        <ele>340</ele>
        <time>2018-11-04T14:56:41Z</time>
      </trkpt>
      <trkpt lat="50.39473" lon="5.88209">
        <ele>342</ele>
        <time>2018-11-04T14:56:51Z</time>
      </trkpt>
      <trkpt lat="50.39478" lon="5.88204">
        <ele>343</ele>
        <time>2018-11-04T14:57:02Z</time>
      </trkpt>
      <trkpt lat="50.39481" lon="5.88205">
        <ele>344</ele>
        <time>2018-11-04T14:57:12Z</time>
      </trkpt>
      <trkpt lat="50.39482" lon="5.88207">
        <ele>345</ele>
        <time>2018-11-04T14:57:23Z</time>
      </trkpt>
      <trkpt lat="50.39486" lon="5.88207">
        <ele>345</ele>
        <time>2018-11-04T14:57:33Z</time>
      </trkpt>
      <trkpt lat="50.39489" lon="5.88208">
        <ele>347</ele>
        <time>2018-11-04T14:57:44Z</time>
      </trkpt>
      <trkpt lat="50.39485" lon="5.88211">
        <ele>347</ele>
        <time>2018-11-04T14:57:54Z</time>
      </trkpt>
      <trkpt lat="50.39487" lon="5.88217">
        <ele>349</ele>
        <time>2018-11-04T14:58:05Z</time>
      </trkpt>
      <trkpt lat="50.39489" lon="5.88223">
        <ele>350</ele>
        <time>2018-11-04T14:58:15Z</time>
      </trkpt>
      <trkpt lat="50.39491" lon="5.88225">
        <ele>351</ele>
        <time>2018-11-04T14:58:26Z</time>
      </trkpt>
      <trkpt lat="50.39493" lon="5.88227">
        <ele>352</ele>
        <time>2018-11-04T14:58:37Z</time>
      </trkpt>
      <trkpt lat="50.39495" lon="5.88229">
        <ele>352</ele>
        <time>2018-11-04T14:58:47Z</time>
      </trkpt>
      <trkpt lat="50.39498" lon="5.88229">
        <ele>352</ele>
        <time>2018-11-04T14:58:59Z</time>
      </trkpt>
      <trkpt lat="50.39499" lon="5.88231">
        <ele>352</ele>
        <time>2018-11-04T14:59:10Z</time>
      </trkpt>
      <trkpt lat="50.39498" lon="5.88233">
        <ele>353</ele>
        <time>2018-11-04T14:59:20Z</time>
      </trkpt>
      <trkpt lat="50.39499" lon="5.88239">
        <ele>353</ele>
        <time>2018-11-04T14:59:31Z</time>
      </trkpt>
      <trkpt lat="50.39499" lon="5.88238">
        <ele>353</ele>
        <time>2018-11-04T14:59:41Z</time>
      </trkpt>
      <trkpt lat="50.39502" lon="5.88237">
        <ele>353</ele>
        <time>2018-11-04T14:59:52Z</time>
      </trkpt>
      <trkpt lat="50.39504" lon="5.88237">
        <ele>353</ele>
        <time>2018-11-04T15:00:02Z</time>
      </trkpt>
      <trkpt lat="50.39508" lon="5.8824">
        <ele>354</ele>
        <time>2018-11-04T15:00:12Z</time>
      </trkpt>
      <trkpt lat="50.3951" lon="5.88247">
        <ele>355</ele>
        <time>2018-11-04T15:00:23Z</time>
      </trkpt>
      <trkpt lat="50.39511" lon="5.88251">
        <ele>357</ele>
        <time>2018-11-04T15:00:33Z</time>
      </trkpt>
      <trkpt lat="50.3951" lon="5.88256">
        <ele>358</ele>
        <time>2018-11-04T15:00:43Z</time>
      </trkpt>
      <trkpt lat="50.39509" lon="5.88263">
        <ele>359</ele>
        <time>2018-11-04T15:00:54Z</time>
      </trkpt>
      <trkpt lat="50.39506" lon="5.88269">
        <ele>359</ele>
        <time>2018-11-04T15:01:05Z</time>
      </trkpt>
      <trkpt lat="50.39504" lon="5.88277">
        <ele>361</ele>
        <time>2018-11-04T15:01:16Z</time>
      </trkpt>
      <trkpt lat="50.39502" lon="5.88285">
        <ele>362</ele>
        <time>2018-11-04T15:01:27Z</time>
      </trkpt>
      <trkpt lat="50.395" lon="5.88291">
        <ele>364</ele>
        <time>2018-11-04T15:01:37Z</time>
      </trkpt>
      <trkpt lat="50.39499" lon="5.88294">
        <ele>364</ele>
        <time>2018-11-04T15:01:47Z</time>
      </trkpt>
      <trkpt lat="50.39497" lon="5.88301">
        <ele>366</ele>
        <time>2018-11-04T15:01:58Z</time>
      </trkpt>
      <trkpt lat="50.39497" lon="5.88303">
        <ele>367</ele>
        <time>2018-11-04T15:02:09Z</time>
      </trkpt>
      <trkpt lat="50.39498" lon="5.88305">
        <ele>366</ele>
        <time>2018-11-04T15:02:19Z</time>
      </trkpt>
      <trkpt lat="50.395" lon="5.88307">
        <ele>366</ele>
        <time>2018-11-04T15:02:30Z</time>
      </trkpt>
      <trkpt lat="50.395" lon="5.8831">
        <ele>367</ele>
        <time>2018-11-04T15:02:41Z</time>
      </trkpt>
      <trkpt lat="50.39497" lon="5.88316">
        <ele>368</ele>
        <time>2018-11-04T15:02:51Z</time>
      </trkpt>
      <trkpt lat="50.39494" lon="5.88321">
        <ele>369</ele>
        <time>2018-11-04T15:03:01Z</time>
      </trkpt>
      <trkpt lat="50.39491" lon="5.88328">
        <ele>371</ele>
        <time>2018-11-04T15:03:11Z</time>
      </trkpt>
      <trkpt lat="50.39488" lon="5.88336">
        <ele>372</ele>
        <time>2018-11-04T15:03:22Z</time>
      </trkpt>
      <trkpt lat="50.39489" lon="5.88344">
        <ele>373</ele>
        <time>2018-11-04T15:03:32Z</time>
      </trkpt>
      <trkpt lat="50.39491" lon="5.88351">
        <ele>375</ele>
        <time>2018-11-04T15:03:43Z</time>
      </trkpt>
      <trkpt lat="50.39492" lon="5.88357">
        <ele>376</ele>
        <time>2018-11-04T15:03:53Z</time>
      </trkpt>
      <trkpt lat="50.39492" lon="5.88361">
        <ele>376</ele>
        <time>2018-11-04T15:04:04Z</time>
      </trkpt>
      <trkpt lat="50.39493" lon="5.88359">
        <ele>377</ele>
        <time>2018-11-04T15:04:15Z</time>
      </trkpt>
      <trkpt lat="50.39493" lon="5.88358">
        <ele>377</ele>
        <time>2018-11-04T15:04:25Z</time>
      </trkpt>
      <trkpt lat="50.39492" lon="5.88356">
        <ele>377</ele>
        <time>2018-11-04T15:04:35Z</time>
      </trkpt>
      <trkpt lat="50.39492" lon="5.88353">
        <ele>377</ele>
        <time>2018-11-04T15:04:47Z</time>
      </trkpt>
      <trkpt lat="50.39492" lon="5.88352">
        <ele>378</ele>
        <time>2018-11-04T15:04:58Z</time>
      </trkpt>
      <trkpt lat="50.39492" lon="5.88352">
        <ele>377</ele>
        <time>2018-11-04T15:05:08Z</time>
      </trkpt>
      <trkpt lat="50.39493" lon="5.88352">
        <ele>378</ele>
        <time>2018-11-04T15:05:18Z</time>
      </trkpt>
      <trkpt lat="50.39492" lon="5.88352">
        <ele>377</ele>
        <time>2018-11-04T15:05:30Z</time>
      </trkpt>
      <trkpt lat="50.39492" lon="5.88353">
        <ele>377</ele>
        <time>2018-11-04T15:05:40Z</time>
      </trkpt>
      <trkpt lat="50.39492" lon="5.88352">
        <ele>378</ele>
        <time>2018-11-04T15:05:50Z</time>
      </trkpt>
      <trkpt lat="50.39493" lon="5.88352">
        <ele>378</ele>
        <time>2018-11-04T15:06:00Z</time>
      </trkpt>
      <trkpt lat="50.39494" lon="5.88352">
        <ele>378</ele>
        <time>2018-11-04T15:06:11Z</time>
      </trkpt>
      <trkpt lat="50.39494" lon="5.88355">
        <ele>378</ele>
        <time>2018-11-04T15:06:22Z</time>
      </trkpt>
      <trkpt lat="50.39494" lon="5.88355">
        <ele>378</ele>
        <time>2018-11-04T15:06:32Z</time>
      </trkpt>
      <trkpt lat="50.39492" lon="5.8835">
        <ele>378</ele>
        <time>2018-11-04T15:06:43Z</time>
      </trkpt>
      <trkpt lat="50.39491" lon="5.88348">
        <ele>378</ele>
        <time>2018-11-04T15:06:55Z</time>
      </trkpt>
      <trkpt lat="50.39492" lon="5.88351">
        <ele>378</ele>
        <time>2018-11-04T15:07:05Z</time>
      </trkpt>
      <trkpt lat="50.39493" lon="5.88354">
        <ele>378</ele>
        <time>2018-11-04T15:07:15Z</time>
      </trkpt>
      <trkpt lat="50.39495" lon="5.88357">
        <ele>379</ele>
        <time>2018-11-04T15:07:26Z</time>
      </trkpt>
      <trkpt lat="50.39496" lon="5.88368">
        <ele>380</ele>
        <time>2018-11-04T15:07:37Z</time>
      </trkpt>
      <trkpt lat="50.39498" lon="5.88368">
        <ele>381</ele>
        <time>2018-11-04T15:07:48Z</time>
      </trkpt>
      <trkpt lat="50.39499" lon="5.88369">
        <ele>381</ele>
        <time>2018-11-04T15:07:59Z</time>
      </trkpt>
      <trkpt lat="50.39502" lon="5.88357">
        <ele>381</ele>
        <time>2018-11-04T15:08:10Z</time>
      </trkpt>
      <trkpt lat="50.39507" lon="5.88347">
        <ele>382</ele>
        <time>2018-11-04T15:08:20Z</time>
      </trkpt>
      <trkpt lat="50.39514" lon="5.88339">
        <ele>382</ele>
        <time>2018-11-04T15:08:30Z</time>
      </trkpt>
      <trkpt lat="50.39519" lon="5.88336">
        <ele>381</ele>
        <time>2018-11-04T15:08:41Z</time>
      </trkpt>
      <trkpt lat="50.39521" lon="5.88335">
        <ele>381</ele>
        <time>2018-11-04T15:08:52Z</time>
      </trkpt>
      <trkpt lat="50.39523" lon="5.88333">
        <ele>382</ele>
        <time>2018-11-04T15:09:02Z</time>
      </trkpt>
      <trkpt lat="50.39526" lon="5.8833">
        <ele>381</ele>
        <time>2018-11-04T15:09:12Z</time>
      </trkpt>
      <trkpt lat="50.39531" lon="5.88331">
        <ele>381</ele>
        <time>2018-11-04T15:09:22Z</time>
      </trkpt>
      <trkpt lat="50.39542" lon="5.88334">
        <ele>381</ele>
        <time>2018-11-04T15:09:33Z</time>
      </trkpt>
      <trkpt lat="50.39547" lon="5.88337">
        <ele>381</ele>
        <time>2018-11-04T15:09:45Z</time>
      </trkpt>
      <trkpt lat="50.39555" lon="5.88339">
        <ele>381</ele>
        <time>2018-11-04T15:09:55Z</time>
      </trkpt>
      <trkpt lat="50.39564" lon="5.88342">
        <ele>380</ele>
        <time>2018-11-04T15:10:06Z</time>
      </trkpt>
      <trkpt lat="50.39573" lon="5.88344">
        <ele>380</ele>
        <time>2018-11-04T15:10:16Z</time>
      </trkpt>
      <trkpt lat="50.3958" lon="5.88348">
        <ele>380</ele>
        <time>2018-11-04T15:10:27Z</time>
      </trkpt>
      <trkpt lat="50.39589" lon="5.88352">
        <ele>379</ele>
        <time>2018-11-04T15:10:37Z</time>
      </trkpt>
      <trkpt lat="50.39596" lon="5.88349">
        <ele>379</ele>
        <time>2018-11-04T15:10:47Z</time>
      </trkpt>
      <trkpt lat="50.39604" lon="5.88345">
        <ele>378</ele>
        <time>2018-11-04T15:10:57Z</time>
      </trkpt>
      <trkpt lat="50.39616" lon="5.88336">
        <ele>378</ele>
        <time>2018-11-04T15:11:08Z</time>
      </trkpt>
      <trkpt lat="50.39628" lon="5.88334">
        <ele>378</ele>
        <time>2018-11-04T15:11:18Z</time>
      </trkpt>
      <trkpt lat="50.39639" lon="5.88337">
        <ele>379</ele>
        <time>2018-11-04T15:11:28Z</time>
      </trkpt>
      <trkpt lat="50.39648" lon="5.88341">
        <ele>380</ele>
        <time>2018-11-04T15:11:38Z</time>
      </trkpt>
      <trkpt lat="50.39658" lon="5.88344">
        <ele>380</ele>
        <time>2018-11-04T15:11:49Z</time>
      </trkpt>
      <trkpt lat="50.39668" lon="5.88345">
        <ele>380</ele>
        <time>2018-11-04T15:11:59Z</time>
      </trkpt>
      <trkpt lat="50.39681" lon="5.88347">
        <ele>379</ele>
        <time>2018-11-04T15:12:10Z</time>
      </trkpt>
      <trkpt lat="50.39691" lon="5.88346">
        <ele>379</ele>
        <time>2018-11-04T15:12:21Z</time>
      </trkpt>
      <trkpt lat="50.39701" lon="5.88344">
        <ele>380</ele>
        <time>2018-11-04T15:12:31Z</time>
      </trkpt>
      <trkpt lat="50.39714" lon="5.88343">
        <ele>380</ele>
        <time>2018-11-04T15:12:42Z</time>
      </trkpt>
      <trkpt lat="50.39727" lon="5.88338">
        <ele>381</ele>
        <time>2018-11-04T15:12:53Z</time>
      </trkpt>
      <trkpt lat="50.3974" lon="5.88336">
        <ele>380</ele>
        <time>2018-11-04T15:13:03Z</time>
      </trkpt>
      <trkpt lat="50.39751" lon="5.8834">
        <ele>381</ele>
        <time>2018-11-04T15:13:13Z</time>
      </trkpt>
      <trkpt lat="50.39761" lon="5.88343">
        <ele>379</ele>
        <time>2018-11-04T15:13:24Z</time>
      </trkpt>
      <trkpt lat="50.39774" lon="5.88348">
        <ele>379</ele>
        <time>2018-11-04T15:13:35Z</time>
      </trkpt>
      <trkpt lat="50.39784" lon="5.8836">
        <ele>378</ele>
        <time>2018-11-04T15:13:46Z</time>
      </trkpt>
      <trkpt lat="50.39791" lon="5.88375">
        <ele>377</ele>
        <time>2018-11-04T15:13:57Z</time>
      </trkpt>
      <trkpt lat="50.39793" lon="5.8839">
        <ele>377</ele>
        <time>2018-11-04T15:14:07Z</time>
      </trkpt>
      <trkpt lat="50.39796" lon="5.88404">
        <ele>378</ele>
        <time>2018-11-04T15:14:17Z</time>
      </trkpt>
      <trkpt lat="50.39798" lon="5.8842">
        <ele>378</ele>
        <time>2018-11-04T15:14:27Z</time>
      </trkpt>
      <trkpt lat="50.39802" lon="5.88437">
        <ele>378</ele>
        <time>2018-11-04T15:14:38Z</time>
      </trkpt>
      <trkpt lat="50.39803" lon="5.88446">
        <ele>379</ele>
        <time>2018-11-04T15:14:49Z</time>
      </trkpt>
      <trkpt lat="50.39802" lon="5.88454">
        <ele>379</ele>
        <time>2018-11-04T15:15:00Z</time>
      </trkpt>
      <trkpt lat="50.398" lon="5.8846">
        <ele>378</ele>
        <time>2018-11-04T15:15:11Z</time>
      </trkpt>
      <trkpt lat="50.39798" lon="5.88465">
        <ele>379</ele>
        <time>2018-11-04T15:15:22Z</time>
      </trkpt>
      <trkpt lat="50.39798" lon="5.88468">
        <ele>379</ele>
        <time>2018-11-04T15:15:34Z</time>
      </trkpt>
      <trkpt lat="50.39798" lon="5.88465">
        <ele>379</ele>
        <time>2018-11-04T15:15:45Z</time>
      </trkpt>
      <trkpt lat="50.39799" lon="5.88469">
        <ele>379</ele>
        <time>2018-11-04T15:15:55Z</time>
      </trkpt>
      <trkpt lat="50.39801" lon="5.88467">
        <ele>379</ele>
        <time>2018-11-04T15:16:05Z</time>
      </trkpt>
      <trkpt lat="50.39806" lon="5.8847">
        <ele>379</ele>
        <time>2018-11-04T15:16:16Z</time>
      </trkpt>
      <trkpt lat="50.39812" lon="5.88478">
        <ele>380</ele>
        <time>2018-11-04T15:16:26Z</time>
      </trkpt>
      <trkpt lat="50.39819" lon="5.88489">
        <ele>380</ele>
        <time>2018-11-04T15:16:36Z</time>
      </trkpt>
      <trkpt lat="50.39827" lon="5.88502">
        <ele>380</ele>
        <time>2018-11-04T15:16:47Z</time>
      </trkpt>
      <trkpt lat="50.39835" lon="5.88512">
        <ele>381</ele>
        <time>2018-11-04T15:16:57Z</time>
      </trkpt>
      <trkpt lat="50.39843" lon="5.88515">
        <ele>381</ele>
        <time>2018-11-04T15:17:08Z</time>
      </trkpt>
      <trkpt lat="50.39855" lon="5.88515">
        <ele>382</ele>
        <time>2018-11-04T15:17:18Z</time>
      </trkpt>
      <trkpt lat="50.39869" lon="5.88512">
        <ele>381</ele>
        <time>2018-11-04T15:17:29Z</time>
      </trkpt>
      <trkpt lat="50.39882" lon="5.88508">
        <ele>381</ele>
        <time>2018-11-04T15:17:39Z</time>
      </trkpt>
      <trkpt lat="50.39896" lon="5.88503">
        <ele>380</ele>
        <time>2018-11-04T15:17:50Z</time>
      </trkpt>
      <trkpt lat="50.39905" lon="5.88496">
        <ele>380</ele>
        <time>2018-11-04T15:18:00Z</time>
      </trkpt>
      <trkpt lat="50.39912" lon="5.88492">
        <ele>379</ele>
        <time>2018-11-04T15:18:10Z</time>
      </trkpt>
      <trkpt lat="50.39924" lon="5.88494">
        <ele>379</ele>
        <time>2018-11-04T15:18:20Z</time>
      </trkpt>
      <trkpt lat="50.39938" lon="5.88499">
        <ele>380</ele>
        <time>2018-11-04T15:18:31Z</time>
      </trkpt>
      <trkpt lat="50.39951" lon="5.88504">
        <ele>379</ele>
        <time>2018-11-04T15:18:41Z</time>
      </trkpt>
      <trkpt lat="50.39962" lon="5.88511">
        <ele>379</ele>
        <time>2018-11-04T15:18:51Z</time>
      </trkpt>
      <trkpt lat="50.39973" lon="5.8852">
        <ele>378</ele>
        <time>2018-11-04T15:19:02Z</time>
      </trkpt>
      <trkpt lat="50.3998" lon="5.88528">
        <ele>378</ele>
        <time>2018-11-04T15:19:12Z</time>
      </trkpt>
      <trkpt lat="50.39983" lon="5.88531">
        <ele>378</ele>
        <time>2018-11-04T15:19:23Z</time>
      </trkpt>
      <trkpt lat="50.39984" lon="5.88533">
        <ele>378</ele>
        <time>2018-11-04T15:19:34Z</time>
      </trkpt>
      <trkpt lat="50.39984" lon="5.88535">
        <ele>378</ele>
        <time>2018-11-04T15:19:44Z</time>
      </trkpt>
      <trkpt lat="50.39994" lon="5.88545">
        <ele>378</ele>
        <time>2018-11-04T15:19:55Z</time>
      </trkpt>
      <trkpt lat="50.40006" lon="5.8855">
        <ele>378</ele>
        <time>2018-11-04T15:20:06Z</time>
      </trkpt>
      <trkpt lat="50.40018" lon="5.8855">
        <ele>377</ele>
        <time>2018-11-04T15:20:16Z</time>
      </trkpt>
      <trkpt lat="50.40031" lon="5.88551">
        <ele>377</ele>
        <time>2018-11-04T15:20:27Z</time>
      </trkpt>
      <trkpt lat="50.40039" lon="5.88551">
        <ele>377</ele>
        <time>2018-11-04T15:20:37Z</time>
      </trkpt>
      <trkpt lat="50.40039" lon="5.88551">
        <ele>377</ele>
        <time>2018-11-04T15:20:48Z</time>
      </trkpt>
      <trkpt lat="50.40039" lon="5.88552">
        <ele>376</ele>
        <time>2018-11-04T15:20:59Z</time>
      </trkpt>
      <trkpt lat="50.40038" lon="5.88553">
        <ele>377</ele>
        <time>2018-11-04T15:21:09Z</time>
      </trkpt>
      <trkpt lat="50.40043" lon="5.88553">
        <ele>376</ele>
        <time>2018-11-04T15:21:20Z</time>
      </trkpt>
      <trkpt lat="50.40054" lon="5.88554">
        <ele>376</ele>
        <time>2018-11-04T15:21:31Z</time>
      </trkpt>
      <trkpt lat="50.40065" lon="5.88553">
        <ele>375</ele>
        <time>2018-11-04T15:21:42Z</time>
      </trkpt>
      <trkpt lat="50.40079" lon="5.88552">
        <ele>375</ele>
        <time>2018-11-04T15:21:53Z</time>
      </trkpt>
      <trkpt lat="50.40084" lon="5.88551">
        <ele>375</ele>
        <time>2018-11-04T15:22:03Z</time>
      </trkpt>
      <trkpt lat="50.40075" lon="5.88551">
        <ele>375</ele>
        <time>2018-11-04T15:22:13Z</time>
      </trkpt>
      <trkpt lat="50.40062" lon="5.88552">
        <ele>375</ele>
        <time>2018-11-04T15:22:24Z</time>
      </trkpt>
      <trkpt lat="50.4005" lon="5.88551">
        <ele>376</ele>
        <time>2018-11-04T15:22:35Z</time>
      </trkpt>
      <trkpt lat="50.40038" lon="5.88549">
        <ele>377</ele>
        <time>2018-11-04T15:22:45Z</time>
      </trkpt>
      <trkpt lat="50.40027" lon="5.88547">
        <ele>377</ele>
        <time>2018-11-04T15:22:55Z</time>
      </trkpt>
      <trkpt lat="50.40016" lon="5.88546">
        <ele>377</ele>
        <time>2018-11-04T15:23:05Z</time>
      </trkpt>
      <trkpt lat="50.40004" lon="5.88546">
        <ele>378</ele>
        <time>2018-11-04T15:23:16Z</time>
      </trkpt>
      <trkpt lat="50.39992" lon="5.88542">
        <ele>378</ele>
        <time>2018-11-04T15:23:26Z</time>
      </trkpt>
      <trkpt lat="50.39983" lon="5.8853">
        <ele>379</ele>
        <time>2018-11-04T15:23:37Z</time>
      </trkpt>
      <trkpt lat="50.39974" lon="5.88521">
        <ele>379</ele>
        <time>2018-11-04T15:23:47Z</time>
      </trkpt>
      <trkpt lat="50.39963" lon="5.88513">
        <ele>379</ele>
        <time>2018-11-04T15:23:58Z</time>
      </trkpt>
      <trkpt lat="50.39954" lon="5.88507">
        <ele>379</ele>
        <time>2018-11-04T15:24:08Z</time>
      </trkpt>
      <trkpt lat="50.39944" lon="5.88503">
        <ele>380</ele>
        <time>2018-11-04T15:24:18Z</time>
      </trkpt>
      <trkpt lat="50.39933" lon="5.88497">
        <ele>380</ele>
        <time>2018-11-04T15:24:29Z</time>
      </trkpt>
      <trkpt lat="50.39922" lon="5.88491">
        <ele>381</ele>
        <time>2018-11-04T15:24:40Z</time>
      </trkpt>
      <trkpt lat="50.39912" lon="5.88492">
        <ele>380</ele>
        <time>2018-11-04T15:24:50Z</time>
      </trkpt>
      <trkpt lat="50.39902" lon="5.88498">
        <ele>381</ele>
        <time>2018-11-04T15:25:00Z</time>
      </trkpt>
      <trkpt lat="50.3989" lon="5.88504">
        <ele>381</ele>
        <time>2018-11-04T15:25:11Z</time>
      </trkpt>
      <trkpt lat="50.39878" lon="5.88506">
        <ele>382</ele>
        <time>2018-11-04T15:25:21Z</time>
      </trkpt>
      <trkpt lat="50.39868" lon="5.88507">
        <ele>382</ele>
        <time>2018-11-04T15:25:31Z</time>
      </trkpt>
      <trkpt lat="50.39866" lon="5.88505">
        <ele>383</ele>
        <time>2018-11-04T15:25:43Z</time>
      </trkpt>
      <trkpt lat="50.39859" lon="5.88504">
        <ele>383</ele>
        <time>2018-11-04T15:25:53Z</time>
      </trkpt>
      <trkpt lat="50.39856" lon="5.88504">
        <ele>383</ele>
        <time>2018-11-04T15:26:04Z</time>
      </trkpt>
      <trkpt lat="50.39856" lon="5.88505">
        <ele>383</ele>
        <time>2018-11-04T15:26:15Z</time>
      </trkpt>
      <trkpt lat="50.39856" lon="5.88506">
        <ele>384</ele>
        <time>2018-11-04T15:26:26Z</time>
      </trkpt>
      <trkpt lat="50.39856" lon="5.88506">
        <ele>383</ele>
        <time>2018-11-04T15:26:37Z</time>
      </trkpt>
      <trkpt lat="50.39847" lon="5.88505">
        <ele>383</ele>
        <time>2018-11-04T15:26:47Z</time>
      </trkpt>
      <trkpt lat="50.39837" lon="5.88496">
        <ele>383</ele>
        <time>2018-11-04T15:26:58Z</time>
      </trkpt>
      <trkpt lat="50.3983" lon="5.88483">
        <ele>382</ele>
        <time>2018-11-04T15:27:09Z</time>
      </trkpt>
      <trkpt lat="50.39827" lon="5.88472">
        <ele>381</ele>
        <time>2018-11-04T15:27:19Z</time>
      </trkpt>
      <trkpt lat="50.3982" lon="5.8846">
        <ele>382</ele>
        <time>2018-11-04T15:27:30Z</time>
      </trkpt>
      <trkpt lat="50.39816" lon="5.8845">
        <ele>382</ele>
        <time>2018-11-04T15:27:40Z</time>
      </trkpt>
      <trkpt lat="50.39812" lon="5.88434">
        <ele>380</ele>
        <time>2018-11-04T15:27:51Z</time>
      </trkpt>
      <trkpt lat="50.3981" lon="5.88419">
        <ele>380</ele>
        <time>2018-11-04T15:28:01Z</time>
      </trkpt>
      <trkpt lat="50.39806" lon="5.88404">
        <ele>379</ele>
        <time>2018-11-04T15:28:11Z</time>
      </trkpt>
      <trkpt lat="50.39803" lon="5.88386">
        <ele>379</ele>
        <time>2018-11-04T15:28:22Z</time>
      </trkpt>
      <trkpt lat="50.398" lon="5.88371">
        <ele>380</ele>
        <time>2018-11-04T15:28:32Z</time>
      </trkpt>
      <trkpt lat="50.39793" lon="5.88359">
        <ele>380</ele>
        <time>2018-11-04T15:28:42Z</time>
      </trkpt>
      <trkpt lat="50.39783" lon="5.88351">
        <ele>381</ele>
        <time>2018-11-04T15:28:53Z</time>
      </trkpt>
      <trkpt lat="50.3977" lon="5.88345">
        <ele>381</ele>
        <time>2018-11-04T15:29:04Z</time>
      </trkpt>
      <trkpt lat="50.39759" lon="5.8834">
        <ele>382</ele>
        <time>2018-11-04T15:29:14Z</time>
      </trkpt>
      <trkpt lat="50.39752" lon="5.88335">
        <ele>382</ele>
        <time>2018-11-04T15:29:25Z</time>
      </trkpt>
      <trkpt lat="50.39749" lon="5.88337">
        <ele>383</ele>
        <time>2018-11-04T15:29:35Z</time>
      </trkpt>
      <trkpt lat="50.3975" lon="5.88338">
        <ele>382</ele>
        <time>2018-11-04T15:29:46Z</time>
      </trkpt>
      <trkpt lat="50.39751" lon="5.88342">
        <ele>382</ele>
        <time>2018-11-04T15:29:56Z</time>
      </trkpt>
      <trkpt lat="50.39745" lon="5.88344">
        <ele>383</ele>
        <time>2018-11-04T15:30:07Z</time>
      </trkpt>
      <trkpt lat="50.39732" lon="5.88342">
        <ele>382</ele>
        <time>2018-11-04T15:30:18Z</time>
      </trkpt>
      <trkpt lat="50.39724" lon="5.88339">
        <ele>382</ele>
        <time>2018-11-04T15:30:28Z</time>
      </trkpt>
      <trkpt lat="50.39722" lon="5.88338">
        <ele>382</ele>
        <time>2018-11-04T15:30:38Z</time>
      </trkpt>
      <trkpt lat="50.39721" lon="5.88339">
        <ele>382</ele>
        <time>2018-11-04T15:30:49Z</time>
      </trkpt>
      <trkpt lat="50.39719" lon="5.88338">
        <ele>382</ele>
        <time>2018-11-04T15:31:00Z</time>
      </trkpt>
      <trkpt lat="50.39717" lon="5.88337">
        <ele>382</ele>
        <time>2018-11-04T15:31:11Z</time>
      </trkpt>
      <trkpt lat="50.39716" lon="5.88335">
        <ele>382</ele>
        <time>2018-11-04T15:31:22Z</time>
      </trkpt>
      <trkpt lat="50.39715" lon="5.88335">
        <ele>382</ele>
        <time>2018-11-04T15:31:35Z</time>
      </trkpt>
      <trkpt lat="50.39715" lon="5.88334">
        <ele>382</ele>
        <time>2018-11-04T15:31:45Z</time>
      </trkpt>
      <trkpt lat="50.39714" lon="5.88329">
        <ele>382</ele>
        <time>2018-11-04T15:31:56Z</time>
      </trkpt>
      <trkpt lat="50.39715" lon="5.88328">
        <ele>382</ele>
        <time>2018-11-04T15:32:07Z</time>
      </trkpt>
      <trkpt lat="50.39719" lon="5.88334">
        <ele>382</ele>
        <time>2018-11-04T15:32:18Z</time>
      </trkpt>
      <trkpt lat="50.39721" lon="5.88336">
        <ele>382</ele>
        <time>2018-11-04T15:32:28Z</time>
      </trkpt>
      <trkpt lat="50.39722" lon="5.88336">
        <ele>382</ele>
        <time>2018-11-04T15:32:39Z</time>
      </trkpt>
      <trkpt lat="50.39721" lon="5.88335">
        <ele>382</ele>
        <time>2018-11-04T15:32:50Z</time>
      </trkpt>
      <trkpt lat="50.39714" lon="5.88338">
        <ele>382</ele>
        <time>2018-11-04T15:33:00Z</time>
      </trkpt>
      <trkpt lat="50.39701" lon="5.88341">
        <ele>382</ele>
        <time>2018-11-04T15:33:10Z</time>
      </trkpt>
      <trkpt lat="50.39685" lon="5.88341">
        <ele>381</ele>
        <time>2018-11-04T15:33:21Z</time>
      </trkpt>
      <trkpt lat="50.39673" lon="5.8834">
        <ele>382</ele>
        <time>2018-11-04T15:33:32Z</time>
      </trkpt>
      <trkpt lat="50.39662" lon="5.88336">
        <ele>381</ele>
        <time>2018-11-04T15:33:43Z</time>
      </trkpt>
      <trkpt lat="50.39651" lon="5.88328">
        <ele>382</ele>
        <time>2018-11-04T15:33:54Z</time>
      </trkpt>
      <trkpt lat="50.39639" lon="5.88323">
        <ele>380</ele>
        <time>2018-11-04T15:34:04Z</time>
      </trkpt>
      <trkpt lat="50.39628" lon="5.8833">
        <ele>380</ele>
        <time>2018-11-04T15:34:15Z</time>
      </trkpt>
      <trkpt lat="50.39618" lon="5.88337">
        <ele>380</ele>
        <time>2018-11-04T15:34:25Z</time>
      </trkpt>
      <trkpt lat="50.39608" lon="5.88342">
        <ele>380</ele>
        <time>2018-11-04T15:34:35Z</time>
      </trkpt>
      <trkpt lat="50.39596" lon="5.88342">
        <ele>381</ele>
        <time>2018-11-04T15:34:45Z</time>
      </trkpt>
      <trkpt lat="50.39585" lon="5.88341">
        <ele>382</ele>
        <time>2018-11-04T15:34:56Z</time>
      </trkpt>
      <trkpt lat="50.39575" lon="5.88338">
        <ele>382</ele>
        <time>2018-11-04T15:35:07Z</time>
      </trkpt>
      <trkpt lat="50.39563" lon="5.88336">
        <ele>382</ele>
        <time>2018-11-04T15:35:18Z</time>
      </trkpt>
      <trkpt lat="50.3955" lon="5.88331">
        <ele>382</ele>
        <time>2018-11-04T15:35:29Z</time>
      </trkpt>
      <trkpt lat="50.39538" lon="5.88325">
        <ele>383</ele>
        <time>2018-11-04T15:35:39Z</time>
      </trkpt>
      <trkpt lat="50.39526" lon="5.88323">
        <ele>384</ele>
        <time>2018-11-04T15:35:50Z</time>
      </trkpt>
      <trkpt lat="50.39519" lon="5.88328">
        <ele>384</ele>
        <time>2018-11-04T15:36:00Z</time>
      </trkpt>
      <trkpt lat="50.39518" lon="5.88329">
        <ele>384</ele>
        <time>2018-11-04T15:36:10Z</time>
      </trkpt>
      <trkpt lat="50.39516" lon="5.88333">
        <ele>384</ele>
        <time>2018-11-04T15:36:21Z</time>
      </trkpt>
      <trkpt lat="50.39518" lon="5.88332">
        <ele>384</ele>
        <time>2018-11-04T15:36:31Z</time>
      </trkpt>
      <trkpt lat="50.39519" lon="5.8833">
        <ele>384</ele>
        <time>2018-11-04T15:36:42Z</time>
      </trkpt>
      <trkpt lat="50.39519" lon="5.88332">
        <ele>384</ele>
        <time>2018-11-04T15:36:53Z</time>
      </trkpt>
      <trkpt lat="50.39518" lon="5.88338">
        <ele>384</ele>
        <time>2018-11-04T15:37:03Z</time>
      </trkpt>
      <trkpt lat="50.39519" lon="5.88342">
        <ele>386</ele>
        <time>2018-11-04T15:37:13Z</time>
      </trkpt>
      <trkpt lat="50.39521" lon="5.88345">
        <ele>388</ele>
        <time>2018-11-04T15:37:23Z</time>
      </trkpt>
      <trkpt lat="50.39522" lon="5.8835">
        <ele>389</ele>
        <time>2018-11-04T15:37:33Z</time>
      </trkpt>
      <trkpt lat="50.39522" lon="5.88353">
        <ele>390</ele>
        <time>2018-11-04T15:37:44Z</time>
      </trkpt>
      <trkpt lat="50.39522" lon="5.8835">
        <ele>389</ele>
        <time>2018-11-04T15:37:54Z</time>
      </trkpt>
      <trkpt lat="50.39519" lon="5.88348">
        <ele>387</ele>
        <time>2018-11-04T15:38:04Z</time>
      </trkpt>
      <trkpt lat="50.39513" lon="5.88348">
        <ele>384</ele>
        <time>2018-11-04T15:38:15Z</time>
      </trkpt>
      <trkpt lat="50.39505" lon="5.88362">
        <ele>383</ele>
        <time>2018-11-04T15:38:26Z</time>
      </trkpt>
      <trkpt lat="50.39499" lon="5.88369">
        <ele>383</ele>
        <time>2018-11-04T15:38:37Z</time>
      </trkpt>
      <trkpt lat="50.39494" lon="5.88377">
        <ele>383</ele>
        <time>2018-11-04T15:38:47Z</time>
      </trkpt>
      <trkpt lat="50.39497" lon="5.88379">
        <ele>384</ele>
        <time>2018-11-04T15:38:58Z</time>
      </trkpt>
      <trkpt lat="50.395" lon="5.8838">
        <ele>385</ele>
        <time>2018-11-04T15:39:08Z</time>
      </trkpt>
      <trkpt lat="50.39505" lon="5.88377">
        <ele>388</ele>
        <time>2018-11-04T15:39:19Z</time>
      </trkpt>
      <trkpt lat="50.39509" lon="5.88377">
        <ele>389</ele>
        <time>2018-11-04T15:39:30Z</time>
      </trkpt>
      <trkpt lat="50.39513" lon="5.88378">
        <ele>391</ele>
        <time>2018-11-04T15:39:40Z</time>
      </trkpt>
      <trkpt lat="50.39517" lon="5.88384">
        <ele>393</ele>
        <time>2018-11-04T15:39:51Z</time>
      </trkpt>
      <trkpt lat="50.39518" lon="5.88392">
        <ele>394</ele>
        <time>2018-11-04T15:40:02Z</time>
      </trkpt>
      <trkpt lat="50.39518" lon="5.88399">
        <ele>396</ele>
        <time>2018-11-04T15:40:13Z</time>
      </trkpt>
      <trkpt lat="50.39519" lon="5.88405">
        <ele>397</ele>
        <time>2018-11-04T15:40:23Z</time>
      </trkpt>
      <trkpt lat="50.39521" lon="5.88411">
        <ele>398</ele>
        <time>2018-11-04T15:40:34Z</time>
      </trkpt>
      <trkpt lat="50.39521" lon="5.88414">
        <ele>400</ele>
        <time>2018-11-04T15:40:45Z</time>
      </trkpt>
      <trkpt lat="50.39523" lon="5.88414">
        <ele>400</ele>
        <time>2018-11-04T15:40:55Z</time>
      </trkpt>
      <trkpt lat="50.39528" lon="5.8841">
        <ele>401</ele>
        <time>2018-11-04T15:41:06Z</time>
      </trkpt>
      <trkpt lat="50.39532" lon="5.88404">
        <ele>401</ele>
        <time>2018-11-04T15:41:17Z</time>
      </trkpt>
      <trkpt lat="50.39531" lon="5.88403">
        <ele>401</ele>
        <time>2018-11-04T15:41:27Z</time>
      </trkpt>
      <trkpt lat="50.39528" lon="5.88405">
        <ele>402</ele>
        <time>2018-11-04T15:41:37Z</time>
      </trkpt>
      <trkpt lat="50.39527" lon="5.88407">
        <ele>404</ele>
        <time>2018-11-04T15:41:47Z</time>
      </trkpt>
      <trkpt lat="50.39529" lon="5.88412">
        <ele>405</ele>
        <time>2018-11-04T15:41:58Z</time>
      </trkpt>
      <trkpt lat="50.39531" lon="5.88414">
        <ele>408</ele>
        <time>2018-11-04T15:42:09Z</time>
      </trkpt>
      <trkpt lat="50.39531" lon="5.88413">
        <ele>409</ele>
        <time>2018-11-04T15:42:19Z</time>
      </trkpt>
      <trkpt lat="50.39532" lon="5.88412">
        <ele>410</ele>
        <time>2018-11-04T15:42:29Z</time>
      </trkpt>
      <trkpt lat="50.39533" lon="5.88411">
        <ele>411</ele>
        <time>2018-11-04T15:42:40Z</time>
      </trkpt>
      <trkpt lat="50.39533" lon="5.88414">
        <ele>412</ele>
        <time>2018-11-04T15:42:50Z</time>
      </trkpt>
      <trkpt lat="50.39533" lon="5.88413">
        <ele>411</ele>
        <time>2018-11-04T15:43:01Z</time>
      </trkpt>
      <trkpt lat="50.39533" lon="5.88413">
        <ele>412</ele>
        <time>2018-11-04T15:43:11Z</time>
      </trkpt>
      <trkpt lat="50.39533" lon="5.88413">
        <ele>412</ele>
        <time>2018-11-04T15:43:21Z</time>
      </trkpt>
      <trkpt lat="50.39534" lon="5.88412">
        <ele>412</ele>
        <time>2018-11-04T15:43:31Z</time>
      </trkpt>
      <trkpt lat="50.39538" lon="5.88409">
        <ele>412</ele>
        <time>2018-11-04T15:43:41Z</time>
      </trkpt>
      <trkpt lat="50.39537" lon="5.88405">
        <ele>412</ele>
        <time>2018-11-04T15:43:52Z</time>
      </trkpt>
      <trkpt lat="50.39536" lon="5.88404">
        <ele>412</ele>
        <time>2018-11-04T15:44:02Z</time>
      </trkpt>
      <trkpt lat="50.39536" lon="5.88405">
        <ele>412</ele>
        <time>2018-11-04T15:44:12Z</time>
      </trkpt>
      <trkpt lat="50.39534" lon="5.88407">
        <ele>412</ele>
        <time>2018-11-04T15:44:22Z</time>
      </trkpt>
      <trkpt lat="50.39533" lon="5.88406">
        <ele>412</ele>
        <time>2018-11-04T15:44:32Z</time>
      </trkpt>
      <trkpt lat="50.39533" lon="5.88404">
        <ele>412</ele>
        <time>2018-11-04T15:44:43Z</time>
      </trkpt>
      <trkpt lat="50.39533" lon="5.88404">
        <ele>412</ele>
        <time>2018-11-04T15:44:54Z</time>
      </trkpt>
      <trkpt lat="50.39532" lon="5.88404">
        <ele>412</ele>
        <time>2018-11-04T15:45:05Z</time>
      </trkpt>
      <trkpt lat="50.39531" lon="5.88401">
        <ele>412</ele>
        <time>2018-11-04T15:45:15Z</time>
      </trkpt>
      <trkpt lat="50.39532" lon="5.88402">
        <ele>412</ele>
        <time>2018-11-04T15:45:25Z</time>
      </trkpt>
      <trkpt lat="50.39532" lon="5.88404">
        <ele>412</ele>
        <time>2018-11-04T15:45:36Z</time>
      </trkpt>
      <trkpt lat="50.39532" lon="5.88406">
        <ele>412</ele>
        <time>2018-11-04T15:45:46Z</time>
      </trkpt>
      <trkpt lat="50.39532" lon="5.88406">
        <ele>413</ele>
        <time>2018-11-04T15:45:56Z</time>
      </trkpt>
      <trkpt lat="50.39532" lon="5.88411">
        <ele>413</ele>
        <time>2018-11-04T15:46:07Z</time>
      </trkpt>
      <trkpt lat="50.39531" lon="5.88418">
        <ele>412</ele>
        <time>2018-11-04T15:46:17Z</time>
      </trkpt>
      <trkpt lat="50.39529" lon="5.88424">
        <ele>412</ele>
        <time>2018-11-04T15:46:29Z</time>
      </trkpt>
      <trkpt lat="50.39528" lon="5.88425">
        <ele>413</ele>
        <time>2018-11-04T15:46:40Z</time>
      </trkpt>
      <trkpt lat="50.39527" lon="5.88427">
        <ele>413</ele>
        <time>2018-11-04T15:46:52Z</time>
      </trkpt>
      <trkpt lat="50.39527" lon="5.88426">
        <ele>413</ele>
        <time>2018-11-04T15:47:02Z</time>
      </trkpt>
      <trkpt lat="50.39528" lon="5.88426">
        <ele>413</ele>
        <time>2018-11-04T15:47:13Z</time>
      </trkpt>
      <trkpt lat="50.39528" lon="5.88428">
        <ele>413</ele>
        <time>2018-11-04T15:47:24Z</time>
      </trkpt>
      <trkpt lat="50.39526" lon="5.88431">
        <ele>413</ele>
        <time>2018-11-04T15:47:35Z</time>
      </trkpt>
      <trkpt lat="50.39526" lon="5.88434">
        <ele>413</ele>
        <time>2018-11-04T15:47:45Z</time>
      </trkpt>
      <trkpt lat="50.3953" lon="5.88429">
        <ele>413</ele>
        <time>2018-11-04T15:47:56Z</time>
      </trkpt>
      <trkpt lat="50.39533" lon="5.88422">
        <ele>413</ele>
        <time>2018-11-04T15:48:06Z</time>
      </trkpt>
      <trkpt lat="50.39532" lon="5.8842">
        <ele>412</ele>
        <time>2018-11-04T15:48:17Z</time>
      </trkpt>
      <trkpt lat="50.39536" lon="5.88415">
        <ele>412</ele>
        <time>2018-11-04T15:48:27Z</time>
      </trkpt>
      <trkpt lat="50.39538" lon="5.88416">
        <ele>413</ele>
        <time>2018-11-04T15:48:38Z</time>
      </trkpt>
      <trkpt lat="50.39536" lon="5.88416">
        <ele>413</ele>
        <time>2018-11-04T15:48:49Z</time>
      </trkpt>
      <trkpt lat="50.39536" lon="5.88414">
        <ele>411</ele>
        <time>2018-11-04T15:48:59Z</time>
      </trkpt>
      <trkpt lat="50.39537" lon="5.88409">
        <ele>410</ele>
        <time>2018-11-04T15:49:09Z</time>
      </trkpt>
      <trkpt lat="50.39534" lon="5.88408">
        <ele>409</ele>
        <time>2018-11-04T15:49:20Z</time>
      </trkpt>
      <trkpt lat="50.39534" lon="5.88411">
        <ele>407</ele>
        <time>2018-11-04T15:49:30Z</time>
      </trkpt>
      <trkpt lat="50.39533" lon="5.88417">
        <ele>404</ele>
        <time>2018-11-04T15:49:41Z</time>
      </trkpt>
      <trkpt lat="50.39533" lon="5.88415">
        <ele>403</ele>
        <time>2018-11-04T15:49:52Z</time>
      </trkpt>
      <trkpt lat="50.39532" lon="5.8841">
        <ele>403</ele>
        <time>2018-11-04T15:50:02Z</time>
      </trkpt>
      <trkpt lat="50.39529" lon="5.88405">
        <ele>402</ele>
        <time>2018-11-04T15:50:13Z</time>
      </trkpt>
      <trkpt lat="50.39526" lon="5.8841">
        <ele>402</ele>
        <time>2018-11-04T15:50:23Z</time>
      </trkpt>
      <trkpt lat="50.39523" lon="5.88414">
        <ele>401</ele>
        <time>2018-11-04T15:50:34Z</time>
      </trkpt>
      <trkpt lat="50.39522" lon="5.88414">
        <ele>401</ele>
        <time>2018-11-04T15:50:44Z</time>
      </trkpt>
      <trkpt lat="50.39521" lon="5.88414">
        <ele>399</ele>
        <time>2018-11-04T15:50:55Z</time>
      </trkpt>
      <trkpt lat="50.39521" lon="5.88409">
        <ele>398</ele>
        <time>2018-11-04T15:51:06Z</time>
      </trkpt>
      <trkpt lat="50.39523" lon="5.88411">
        <ele>398</ele>
        <time>2018-11-04T15:51:17Z</time>
      </trkpt>
      <trkpt lat="50.39523" lon="5.88409">
        <ele>397</ele>
        <time>2018-11-04T15:51:27Z</time>
      </trkpt>
      <trkpt lat="50.39524" lon="5.88401">
        <ele>396</ele>
        <time>2018-11-04T15:51:38Z</time>
      </trkpt>
      <trkpt lat="50.39525" lon="5.8839">
        <ele>394</ele>
        <time>2018-11-04T15:51:49Z</time>
      </trkpt>
      <trkpt lat="50.39521" lon="5.88382">
        <ele>392</ele>
        <time>2018-11-04T15:51:59Z</time>
      </trkpt>
      <trkpt lat="50.39518" lon="5.88381">
        <ele>390</ele>
        <time>2018-11-04T15:52:10Z</time>
      </trkpt>
      <trkpt lat="50.39513" lon="5.88379">
        <ele>389</ele>
        <time>2018-11-04T15:52:20Z</time>
      </trkpt>
      <trkpt lat="50.39509" lon="5.88378">
        <ele>388</ele>
        <time>2018-11-04T15:52:31Z</time>
      </trkpt>
      <trkpt lat="50.39504" lon="5.88378">
        <ele>387</ele>
        <time>2018-11-04T15:52:41Z</time>
      </trkpt>
      <trkpt lat="50.39499" lon="5.8838">
        <ele>385</ele>
        <time>2018-11-04T15:52:51Z</time>
      </trkpt>
      <trkpt lat="50.39493" lon="5.88378">
        <ele>383</ele>
        <time>2018-11-04T15:53:02Z</time>
      </trkpt>
      <trkpt lat="50.39494" lon="5.88367">
        <ele>383</ele>
        <time>2018-11-04T15:53:13Z</time>
      </trkpt>
      <trkpt lat="50.39496" lon="5.8836">
        <ele>382</ele>
        <time>2018-11-04T15:53:23Z</time>
      </trkpt>
      <trkpt lat="50.39495" lon="5.88357">
        <ele>381</ele>
        <time>2018-11-04T15:53:34Z</time>
      </trkpt>
      <trkpt lat="50.39492" lon="5.88356">
        <ele>380</ele>
        <time>2018-11-04T15:53:44Z</time>
      </trkpt>
      <trkpt lat="50.39488" lon="5.88351">
        <ele>378</ele>
        <time>2018-11-04T15:53:55Z</time>
      </trkpt>
      <trkpt lat="50.39486" lon="5.88345">
        <ele>376</ele>
        <time>2018-11-04T15:54:06Z</time>
      </trkpt>
      <trkpt lat="50.39486" lon="5.88343">
        <ele>376</ele>
        <time>2018-11-04T15:54:18Z</time>
      </trkpt>
      <trkpt lat="50.39486" lon="5.88344">
        <ele>377</ele>
        <time>2018-11-04T15:54:28Z</time>
      </trkpt>
      <trkpt lat="50.39486" lon="5.88344">
        <ele>376</ele>
        <time>2018-11-04T15:54:38Z</time>
      </trkpt>
      <trkpt lat="50.39486" lon="5.88343">
        <ele>376</ele>
        <time>2018-11-04T15:54:48Z</time>
      </trkpt>
      <trkpt lat="50.39489" lon="5.88335">
        <ele>375</ele>
        <time>2018-11-04T15:54:59Z</time>
      </trkpt>
      <trkpt lat="50.39491" lon="5.88328">
        <ele>374</ele>
        <time>2018-11-04T15:55:09Z</time>
      </trkpt>
      <trkpt lat="50.39494" lon="5.8832">
        <ele>372</ele>
        <time>2018-11-04T15:55:20Z</time>
      </trkpt>
      <trkpt lat="50.39498" lon="5.88312">
        <ele>371</ele>
        <time>2018-11-04T15:55:30Z</time>
      </trkpt>
      <trkpt lat="50.39501" lon="5.88304">
        <ele>369</ele>
        <time>2018-11-04T15:55:41Z</time>
      </trkpt>
      <trkpt lat="50.39503" lon="5.88294">
        <ele>367</ele>
        <time>2018-11-04T15:55:52Z</time>
      </trkpt>
      <trkpt lat="50.39505" lon="5.88283">
        <ele>366</ele>
        <time>2018-11-04T15:56:02Z</time>
      </trkpt>
      <trkpt lat="50.39507" lon="5.88277">
        <ele>365</ele>
        <time>2018-11-04T15:56:12Z</time>
      </trkpt>
      <trkpt lat="50.39509" lon="5.88266">
        <ele>364</ele>
        <time>2018-11-04T15:56:23Z</time>
      </trkpt>
      <trkpt lat="50.39511" lon="5.88258">
        <ele>363</ele>
        <time>2018-11-04T15:56:33Z</time>
      </trkpt>
      <trkpt lat="50.39509" lon="5.88254">
        <ele>361</ele>
        <time>2018-11-04T15:56:44Z</time>
      </trkpt>
      <trkpt lat="50.39507" lon="5.88248">
        <ele>361</ele>
        <time>2018-11-04T15:56:54Z</time>
      </trkpt>
      <trkpt lat="50.39503" lon="5.88241">
        <ele>358</ele>
        <time>2018-11-04T15:57:05Z</time>
      </trkpt>
      <trkpt lat="50.395" lon="5.88236">
        <ele>357</ele>
        <time>2018-11-04T15:57:16Z</time>
      </trkpt>
      <trkpt lat="50.39499" lon="5.88233">
        <ele>357</ele>
        <time>2018-11-04T15:57:26Z</time>
      </trkpt>
      <trkpt lat="50.39494" lon="5.88227">
        <ele>356</ele>
        <time>2018-11-04T15:57:36Z</time>
      </trkpt>
      <trkpt lat="50.39492" lon="5.88227">
        <ele>355</ele>
        <time>2018-11-04T15:57:46Z</time>
      </trkpt>
      <trkpt lat="50.39489" lon="5.88222">
        <ele>354</ele>
        <time>2018-11-04T15:57:57Z</time>
      </trkpt>
      <trkpt lat="50.39488" lon="5.88217">
        <ele>353</ele>
        <time>2018-11-04T15:58:07Z</time>
      </trkpt>
      <trkpt lat="50.39492" lon="5.88214">
        <ele>352</ele>
        <time>2018-11-04T15:58:18Z</time>
      </trkpt>
      <trkpt lat="50.3949" lon="5.88209">
        <ele>351</ele>
        <time>2018-11-04T15:58:28Z</time>
      </trkpt>
      <trkpt lat="50.39484" lon="5.88206">
        <ele>349</ele>
        <time>2018-11-04T15:58:39Z</time>
      </trkpt>
      <trkpt lat="50.39481" lon="5.88202">
        <ele>348</ele>
        <time>2018-11-04T15:58:49Z</time>
      </trkpt>
      <trkpt lat="50.39482" lon="5.88196">
        <ele>348</ele>
        <time>2018-11-04T15:59:00Z</time>
      </trkpt>
      <trkpt lat="50.39484" lon="5.88189">
        <ele>345</ele>
        <time>2018-11-04T15:59:10Z</time>
      </trkpt>
      <trkpt lat="50.39484" lon="5.88188">
        <ele>344</ele>
        <time>2018-11-04T15:59:21Z</time>
      </trkpt>
      <trkpt lat="50.39483" lon="5.88189">
        <ele>345</ele>
        <time>2018-11-04T15:59:32Z</time>
      </trkpt>
      <trkpt lat="50.39482" lon="5.88189">
        <ele>344</ele>
        <time>2018-11-04T15:59:42Z</time>
      </trkpt>
      <trkpt lat="50.39482" lon="5.88184">
        <ele>343</ele>
        <time>2018-11-04T15:59:52Z</time>
      </trkpt>
      <trkpt lat="50.39483" lon="5.88179">
        <ele>342</ele>
        <time>2018-11-04T16:00:03Z</time>
      </trkpt>
      <trkpt lat="50.39484" lon="5.88175">
        <ele>340</ele>
        <time>2018-11-04T16:00:13Z</time>
      </trkpt>
      <trkpt lat="50.39484" lon="5.8817">
        <ele>339</ele>
        <time>2018-11-04T16:00:24Z</time>
      </trkpt>
      <trkpt lat="50.39484" lon="5.88167">
        <ele>338</ele>
        <time>2018-11-04T16:00:35Z</time>
      </trkpt>
      <trkpt lat="50.39482" lon="5.88164">
        <ele>338</ele>
        <time>2018-11-04T16:00:46Z</time>
      </trkpt>
      <trkpt lat="50.39482" lon="5.88162">
        <ele>338</ele>
        <time>2018-11-04T16:00:58Z</time>
      </trkpt>
      <trkpt lat="50.39482" lon="5.88163">
        <ele>338</ele>
        <time>2018-11-04T16:01:08Z</time>
      </trkpt>
      <trkpt lat="50.39482" lon="5.88165">
        <ele>338</ele>
        <time>2018-11-04T16:01:18Z</time>
      </trkpt>
      <trkpt lat="50.39481" lon="5.88166">
        <ele>337</ele>
        <time>2018-11-04T16:01:28Z</time>
      </trkpt>
      <trkpt lat="50.39478" lon="5.88164">
        <ele>336</ele>
        <time>2018-11-04T16:01:39Z</time>
      </trkpt>
      <trkpt lat="50.39471" lon="5.88166">
        <ele>335</ele>
        <time>2018-11-04T16:01:50Z</time>
      </trkpt>
      <trkpt lat="50.39467" lon="5.88165">
        <ele>333</ele>
        <time>2018-11-04T16:02:00Z</time>
      </trkpt>
      <trkpt lat="50.39471" lon="5.8816">
        <ele>334</ele>
        <time>2018-11-04T16:02:11Z</time>
      </trkpt>
      <trkpt lat="50.39472" lon="5.8816">
        <ele>334</ele>
        <time>2018-11-04T16:02:21Z</time>
      </trkpt>
      <trkpt lat="50.39471" lon="5.88164">
        <ele>335</ele>
        <time>2018-11-04T16:02:32Z</time>
      </trkpt>
      <trkpt lat="50.39472" lon="5.88161">
        <ele>335</ele>
        <time>2018-11-04T16:02:42Z</time>
      </trkpt>
      <trkpt lat="50.39473" lon="5.88159">
        <ele>334</ele>
        <time>2018-11-04T16:02:53Z</time>
      </trkpt>
      <trkpt lat="50.39473" lon="5.88161">
        <ele>334</ele>
        <time>2018-11-04T16:03:03Z</time>
      </trkpt>
      <trkpt lat="50.39466" lon="5.88165">
        <ele>334</ele>
        <time>2018-11-04T16:03:14Z</time>
      </trkpt>
      <trkpt lat="50.3946" lon="5.88164">
        <ele>331</ele>
        <time>2018-11-04T16:03:24Z</time>
      </trkpt>
      <trkpt lat="50.39458" lon="5.88164">
        <ele>330</ele>
        <time>2018-11-04T16:03:35Z</time>
      </trkpt>
      <trkpt lat="50.39453" lon="5.88166">
        <ele>329</ele>
        <time>2018-11-04T16:03:46Z</time>
      </trkpt>
      <trkpt lat="50.39448" lon="5.88167">
        <ele>328</ele>
        <time>2018-11-04T16:03:57Z</time>
      </trkpt>
      <trkpt lat="50.39443" lon="5.88169">
        <ele>327</ele>
        <time>2018-11-04T16:04:08Z</time>
      </trkpt>
      <trkpt lat="50.39437" lon="5.88175">
        <ele>326</ele>
        <time>2018-11-04T16:04:19Z</time>
      </trkpt>
      <trkpt lat="50.39433" lon="5.88177">
        <ele>324</ele>
        <time>2018-11-04T16:04:29Z</time>
      </trkpt>
      <trkpt lat="50.39435" lon="5.88177">
        <ele>323</ele>
        <time>2018-11-04T16:04:40Z</time>
      </trkpt>
      <trkpt lat="50.39435" lon="5.88175">
        <ele>321</ele>
        <time>2018-11-04T16:04:50Z</time>
      </trkpt>
      <trkpt lat="50.39435" lon="5.88173">
        <ele>320</ele>
        <time>2018-11-04T16:05:00Z</time>
      </trkpt>
      <trkpt lat="50.39437" lon="5.88167">
        <ele>319</ele>
        <time>2018-11-04T16:05:11Z</time>
      </trkpt>
      <trkpt lat="50.39438" lon="5.88162">
        <ele>318</ele>
        <time>2018-11-04T16:05:21Z</time>
      </trkpt>
      <trkpt lat="50.39439" lon="5.88155">
        <ele>316</ele>
        <time>2018-11-04T16:05:31Z</time>
      </trkpt>
      <trkpt lat="50.3944" lon="5.88146">
        <ele>315</ele>
        <time>2018-11-04T16:05:42Z</time>
      </trkpt>
      <trkpt lat="50.39442" lon="5.88136">
        <ele>314</ele>
        <time>2018-11-04T16:05:53Z</time>
      </trkpt>
      <trkpt lat="50.39442" lon="5.88132">
        <ele>313</ele>
        <time>2018-11-04T16:06:03Z</time>
      </trkpt>
      <trkpt lat="50.39442" lon="5.88122">
        <ele>312</ele>
        <time>2018-11-04T16:06:14Z</time>
      </trkpt>
      <trkpt lat="50.39443" lon="5.88112">
        <ele>311</ele>
        <time>2018-11-04T16:06:24Z</time>
      </trkpt>
      <trkpt lat="50.39442" lon="5.88105">
        <ele>310</ele>
        <time>2018-11-04T16:06:34Z</time>
      </trkpt>
      <trkpt lat="50.39442" lon="5.88093">
        <ele>308</ele>
        <time>2018-11-04T16:06:45Z</time>
      </trkpt>
      <trkpt lat="50.39441" lon="5.88086">
        <ele>308</ele>
        <time>2018-11-04T16:06:55Z</time>
      </trkpt>
      <trkpt lat="50.39441" lon="5.88076">
        <ele>306</ele>
        <time>2018-11-04T16:07:06Z</time>
      </trkpt>
      <trkpt lat="50.39441" lon="5.88071">
        <ele>305</ele>
        <time>2018-11-04T16:07:16Z</time>
      </trkpt>
      <trkpt lat="50.39441" lon="5.88064">
        <ele>304</ele>
        <time>2018-11-04T16:07:27Z</time>
      </trkpt>
      <trkpt lat="50.39442" lon="5.88061">
        <ele>303</ele>
        <time>2018-11-04T16:07:37Z</time>
      </trkpt>
      <trkpt lat="50.39444" lon="5.8806">
        <ele>302</ele>
        <time>2018-11-04T16:07:48Z</time>
      </trkpt>
      <trkpt lat="50.39447" lon="5.88059">
        <ele>301</ele>
        <time>2018-11-04T16:07:59Z</time>
      </trkpt>
      <trkpt lat="50.39448" lon="5.88057">
        <ele>300</ele>
        <time>2018-11-04T16:08:09Z</time>
      </trkpt>
      <trkpt lat="50.39453" lon="5.88057">
        <ele>300</ele>
        <time>2018-11-04T16:08:20Z</time>
      </trkpt>
      <trkpt lat="50.39453" lon="5.88056">
        <ele>301</ele>
        <time>2018-11-04T16:08:31Z</time>
      </trkpt>
      <trkpt lat="50.39455" lon="5.88055">
        <ele>300</ele>
        <time>2018-11-04T16:08:41Z</time>
      </trkpt>
      <trkpt lat="50.39457" lon="5.88055">
        <ele>300</ele>
        <time>2018-11-04T16:08:51Z</time>
      </trkpt>
      <trkpt lat="50.39457" lon="5.88055">
        <ele>300</ele>
        <time>2018-11-04T16:09:02Z</time>
      </trkpt>
      <trkpt lat="50.39456" lon="5.88055">
        <ele>300</ele>
        <time>2018-11-04T16:09:13Z</time>
      </trkpt>
      <trkpt lat="50.39455" lon="5.88054">
        <ele>300</ele>
        <time>2018-11-04T16:09:23Z</time>
      </trkpt>
      <trkpt lat="50.39454" lon="5.88055">
        <ele>299</ele>
        <time>2018-11-04T16:09:33Z</time>
      </trkpt>
      <trkpt lat="50.39453" lon="5.88055">
        <ele>300</ele>
        <time>2018-11-04T16:09:51Z</time>
      </trkpt>
      <trkpt lat="50.39454" lon="5.88056">
        <ele>300</ele>
        <time>2018-11-04T16:10:01Z</time>
      </trkpt>
      <trkpt lat="50.39454" lon="5.88059">
        <ele>300</ele>
        <time>2018-11-04T16:10:11Z</time>
      </trkpt>
      <trkpt lat="50.39454" lon="5.88062">
        <ele>300</ele>
        <time>2018-11-04T16:10:21Z</time>
      </trkpt>
      <trkpt lat="50.39454" lon="5.88063">
        <ele>300</ele>
        <time>2018-11-04T16:10:32Z</time>
      </trkpt>
      <trkpt lat="50.39455" lon="5.88061">
        <ele>300</ele>
        <time>2018-11-04T16:10:42Z</time>
      </trkpt>
      <trkpt lat="50.39455" lon="5.88056">
        <ele>300</ele>
        <time>2018-11-04T16:10:52Z</time>
      </trkpt>
      <trkpt lat="50.39455" lon="5.88053">
        <ele>300</ele>
        <time>2018-11-04T16:11:03Z</time>
      </trkpt>
      <trkpt lat="50.39456" lon="5.88054">
        <ele>299</ele>
        <time>2018-11-04T16:11:13Z</time>
      </trkpt>
      <trkpt lat="50.39457" lon="5.88056">
        <ele>300</ele>
        <time>2018-11-04T16:11:23Z</time>
      </trkpt>
      <trkpt lat="50.39457" lon="5.88056">
        <ele>300</ele>
        <time>2018-11-04T16:11:35Z</time>
      </trkpt>
      <trkpt lat="50.39457" lon="5.88054">
        <ele>300</ele>
        <time>2018-11-04T16:11:45Z</time>
      </trkpt>
      <trkpt lat="50.39457" lon="5.88052">
        <ele>300</ele>
        <time>2018-11-04T16:11:55Z</time>
      </trkpt>
      <trkpt lat="50.39456" lon="5.8805">
        <ele>299</ele>
        <time>2018-11-04T16:12:06Z</time>
      </trkpt>
      <trkpt lat="50.39455" lon="5.8805">
        <ele>299</ele>
        <time>2018-11-04T16:12:17Z</time>
      </trkpt>
      <trkpt lat="50.39454" lon="5.88052">
        <ele>299</ele>
        <time>2018-11-04T16:12:27Z</time>
      </trkpt>
      <trkpt lat="50.39454" lon="5.88059">
        <ele>299</ele>
        <time>2018-11-04T16:12:37Z</time>
      </trkpt>
      <trkpt lat="50.39457" lon="5.88059">
        <ele>299</ele>
        <time>2018-11-04T16:12:48Z</time>
      </trkpt>
      <trkpt lat="50.39462" lon="5.88057">
        <ele>300</ele>
        <time>2018-11-04T16:12:58Z</time>
      </trkpt>
      <trkpt lat="50.39462" lon="5.88057">
        <ele>300</ele>
        <time>2018-11-04T16:13:09Z</time>
      </trkpt>
      <trkpt lat="50.3946" lon="5.88059">
        <ele>299</ele>
        <time>2018-11-04T16:13:20Z</time>
      </trkpt>
      <trkpt lat="50.39458" lon="5.8806">
        <ele>300</ele>
        <time>2018-11-04T16:13:30Z</time>
      </trkpt>
      <trkpt lat="50.39456" lon="5.8806">
        <ele>299</ele>
        <time>2018-11-04T16:13:41Z</time>
      </trkpt>
      <trkpt lat="50.39455" lon="5.88061">
        <ele>300</ele>
        <time>2018-11-04T16:13:51Z</time>
      </trkpt>
      <trkpt lat="50.39454" lon="5.88062">
        <ele>299</ele>
        <time>2018-11-04T16:14:01Z</time>
      </trkpt>
      <trkpt lat="50.39454" lon="5.88061">
        <ele>299</ele>
        <time>2018-11-04T16:14:12Z</time>
      </trkpt>
      <trkpt lat="50.39455" lon="5.8806">
        <ele>299</ele>
        <time>2018-11-04T16:14:22Z</time>
      </trkpt>
      <trkpt lat="50.39459" lon="5.88059">
        <ele>299</ele>
        <time>2018-11-04T16:14:32Z</time>
      </trkpt>
      <trkpt lat="50.3946" lon="5.88057">
        <ele>300</ele>
        <time>2018-11-04T16:14:43Z</time>
      </trkpt>
      <trkpt lat="50.39461" lon="5.88055">
        <ele>299</ele>
        <time>2018-11-04T16:14:53Z</time>
      </trkpt>
      <trkpt lat="50.39463" lon="5.88055">
        <ele>300</ele>
        <time>2018-11-04T16:15:03Z</time>
      </trkpt>
      <trkpt lat="50.39461" lon="5.88052">
        <ele>300</ele>
        <time>2018-11-04T16:15:13Z</time>
      </trkpt>
      <trkpt lat="50.39458" lon="5.88048">
        <ele>300</ele>
        <time>2018-11-04T16:15:24Z</time>
      </trkpt>
      <trkpt lat="50.39452" lon="5.88041">
        <ele>299</ele>
        <time>2018-11-04T16:15:34Z</time>
      </trkpt>
      <trkpt lat="50.39445" lon="5.88036">
        <ele>297</ele>
        <time>2018-11-04T16:15:45Z</time>
      </trkpt>
      <trkpt lat="50.39441" lon="5.88033">
        <ele>296</ele>
        <time>2018-11-04T16:15:55Z</time>
      </trkpt>
      <trkpt lat="50.39436" lon="5.88027">
        <ele>294</ele>
        <time>2018-11-04T16:16:06Z</time>
      </trkpt>
      <trkpt lat="50.39431" lon="5.88024">
        <ele>293</ele>
        <time>2018-11-04T16:16:16Z</time>
      </trkpt>
      <trkpt lat="50.39426" lon="5.88021">
        <ele>292</ele>
        <time>2018-11-04T16:16:27Z</time>
      </trkpt>
      <trkpt lat="50.39423" lon="5.8802">
        <ele>291</ele>
        <time>2018-11-04T16:16:38Z</time>
      </trkpt>
      <trkpt lat="50.39423" lon="5.88015">
        <ele>290</ele>
        <time>2018-11-04T16:16:48Z</time>
      </trkpt>
      <trkpt lat="50.39423" lon="5.88012">
        <ele>289</ele>
        <time>2018-11-04T16:16:59Z</time>
      </trkpt>
      <trkpt lat="50.39424" lon="5.88012">
        <ele>288</ele>
        <time>2018-11-04T16:17:13Z</time>
      </trkpt>
      <trkpt lat="50.39422" lon="5.88008">
        <ele>287</ele>
        <time>2018-11-04T16:17:23Z</time>
      </trkpt>
      <trkpt lat="50.39419" lon="5.88007">
        <ele>286</ele>
        <time>2018-11-04T16:17:34Z</time>
      </trkpt>
      <trkpt lat="50.39418" lon="5.88006">
        <ele>286</ele>
        <time>2018-11-04T16:17:44Z</time>
      </trkpt>
      <trkpt lat="50.39417" lon="5.88004">
        <ele>285</ele>
        <time>2018-11-04T16:17:55Z</time>
      </trkpt>
      <trkpt lat="50.39416" lon="5.88">
        <ele>285</ele>
        <time>2018-11-04T16:18:05Z</time>
      </trkpt>
      <trkpt lat="50.39412" lon="5.87996">
        <ele>284</ele>
        <time>2018-11-04T16:18:16Z</time>
      </trkpt>
      <trkpt lat="50.3941" lon="5.87994">
        <ele>283</ele>
        <time>2018-11-04T16:18:26Z</time>
      </trkpt>
      <trkpt lat="50.39409" lon="5.87991">
        <ele>282</ele>
        <time>2018-11-04T16:18:36Z</time>
      </trkpt>
      <trkpt lat="50.39407" lon="5.8799">
        <ele>280</ele>
        <time>2018-11-04T16:18:46Z</time>
      </trkpt>
      <trkpt lat="50.39405" lon="5.87987">
        <ele>280</ele>
        <time>2018-11-04T16:18:57Z</time>
      </trkpt>
      <trkpt lat="50.39403" lon="5.87984">
        <ele>279</ele>
        <time>2018-11-04T16:19:07Z</time>
      </trkpt>
      <trkpt lat="50.39401" lon="5.87977">
        <ele>278</ele>
        <time>2018-11-04T16:19:17Z</time>
      </trkpt>
      <trkpt lat="50.394" lon="5.87974">
        <ele>276</ele>
        <time>2018-11-04T16:19:27Z</time>
      </trkpt>
      <trkpt lat="50.39399" lon="5.87972">
        <ele>276</ele>
        <time>2018-11-04T16:19:38Z</time>
      </trkpt>
      <trkpt lat="50.39397" lon="5.87968">
        <ele>275</ele>
        <time>2018-11-04T16:19:49Z</time>
      </trkpt>
      <trkpt lat="50.39394" lon="5.87964">
        <ele>274</ele>
        <time>2018-11-04T16:20:00Z</time>
      </trkpt>
      <trkpt lat="50.39393" lon="5.87959">
        <ele>274</ele>
        <time>2018-11-04T16:20:11Z</time>
      </trkpt>
      <trkpt lat="50.39396" lon="5.87955">
        <ele>273</ele>
        <time>2018-11-04T16:20:21Z</time>
      </trkpt>
      <trkpt lat="50.39398" lon="5.87955">
        <ele>272</ele>
        <time>2018-11-04T16:20:32Z</time>
      </trkpt>
      <trkpt lat="50.39401" lon="5.87956">
        <ele>271</ele>
        <time>2018-11-04T16:20:43Z</time>
      </trkpt>
      <trkpt lat="50.39405" lon="5.87956">
        <ele>269</ele>
        <time>2018-11-04T16:20:53Z</time>
      </trkpt>
      <trkpt lat="50.3941" lon="5.87955">
        <ele>268</ele>
        <time>2018-11-04T16:21:03Z</time>
      </trkpt>
      <trkpt lat="50.39416" lon="5.87956">
        <ele>266</ele>
        <time>2018-11-04T16:21:13Z</time>
      </trkpt>
      <trkpt lat="50.39422" lon="5.87955">
        <ele>265</ele>
        <time>2018-11-04T16:21:24Z</time>
      </trkpt>
      <trkpt lat="50.39427" lon="5.87956">
        <ele>263</ele>
        <time>2018-11-04T16:21:35Z</time>
      </trkpt>
      <trkpt lat="50.3943" lon="5.87955">
        <ele>262</ele>
        <time>2018-11-04T16:21:46Z</time>
      </trkpt>
      <trkpt lat="50.3943" lon="5.87955">
        <ele>261</ele>
        <time>2018-11-04T16:21:56Z</time>
      </trkpt>
      <trkpt lat="50.39431" lon="5.87948">
        <ele>260</ele>
        <time>2018-11-04T16:22:07Z</time>
      </trkpt>
      <trkpt lat="50.39429" lon="5.87941">
        <ele>258</ele>
        <time>2018-11-04T16:22:17Z</time>
      </trkpt>
      <trkpt lat="50.39429" lon="5.87938">
        <ele>257</ele>
        <time>2018-11-04T16:22:28Z</time>
      </trkpt>
      <trkpt lat="50.39429" lon="5.87929">
        <ele>256</ele>
        <time>2018-11-04T16:22:39Z</time>
      </trkpt>
      <trkpt lat="50.39428" lon="5.87922">
        <ele>255</ele>
        <time>2018-11-04T16:22:50Z</time>
      </trkpt>
      <trkpt lat="50.39425" lon="5.87913">
        <ele>252</ele>
        <time>2018-11-04T16:23:00Z</time>
      </trkpt>
      <trkpt lat="50.39419" lon="5.87904">
        <ele>251</ele>
        <time>2018-11-04T16:23:11Z</time>
      </trkpt>
      <trkpt lat="50.39414" lon="5.87897">
        <ele>249</ele>
        <time>2018-11-04T16:23:21Z</time>
      </trkpt>
      <trkpt lat="50.39409" lon="5.87887">
        <ele>248</ele>
        <time>2018-11-04T16:23:32Z</time>
      </trkpt>
      <trkpt lat="50.39405" lon="5.87877">
        <ele>246</ele>
        <time>2018-11-04T16:23:43Z</time>
      </trkpt>
      <trkpt lat="50.39407" lon="5.87875">
        <ele>245</ele>
        <time>2018-11-04T16:23:53Z</time>
      </trkpt>
      <trkpt lat="50.3941" lon="5.87876">
        <ele>244</ele>
        <time>2018-11-04T16:24:03Z</time>
      </trkpt>
      <trkpt lat="50.39412" lon="5.87877">
        <ele>243</ele>
        <time>2018-11-04T16:24:13Z</time>
      </trkpt>
      <trkpt lat="50.39415" lon="5.87877">
        <ele>241</ele>
        <time>2018-11-04T16:24:23Z</time>
      </trkpt>
      <trkpt lat="50.39418" lon="5.87879">
        <ele>240</ele>
        <time>2018-11-04T16:24:33Z</time>
      </trkpt>
      <trkpt lat="50.39425" lon="5.87881">
        <ele>240</ele>
        <time>2018-11-04T16:24:44Z</time>
      </trkpt>
      <trkpt lat="50.3943" lon="5.87883">
        <ele>238</ele>
        <time>2018-11-04T16:24:54Z</time>
      </trkpt>
      <trkpt lat="50.39437" lon="5.87888">
        <ele>237</ele>
        <time>2018-11-04T16:25:05Z</time>
      </trkpt>
      <trkpt lat="50.39444" lon="5.87891">
        <ele>236</ele>
        <time>2018-11-04T16:25:16Z</time>
      </trkpt>
      <trkpt lat="50.3945" lon="5.87893">
        <ele>235</ele>
        <time>2018-11-04T16:25:27Z</time>
      </trkpt>
      <trkpt lat="50.39455" lon="5.87896">
        <ele>234</ele>
        <time>2018-11-04T16:25:37Z</time>
      </trkpt>
      <trkpt lat="50.3946" lon="5.87898">
        <ele>233</ele>
        <time>2018-11-04T16:25:47Z</time>
      </trkpt>
      <trkpt lat="50.39465" lon="5.87899">
        <ele>231</ele>
        <time>2018-11-04T16:25:57Z</time>
      </trkpt>
      <trkpt lat="50.3947" lon="5.87902">
        <ele>230</ele>
        <time>2018-11-04T16:26:08Z</time>
      </trkpt>
      <trkpt lat="50.39473" lon="5.87903">
        <ele>230</ele>
        <time>2018-11-04T16:26:19Z</time>
      </trkpt>
      <trkpt lat="50.39476" lon="5.87901">
        <ele>228</ele>
        <time>2018-11-04T16:26:30Z</time>
      </trkpt>
      <trkpt lat="50.39479" lon="5.87899">
        <ele>227</ele>
        <time>2018-11-04T16:26:41Z</time>
      </trkpt>
      <trkpt lat="50.3948" lon="5.87898">
        <ele>226</ele>
        <time>2018-11-04T16:26:51Z</time>
      </trkpt>
      <trkpt lat="50.39483" lon="5.87896">
        <ele>224</ele>
        <time>2018-11-04T16:27:02Z</time>
      </trkpt>
      <trkpt lat="50.39485" lon="5.87895">
        <ele>223</ele>
        <time>2018-11-04T16:27:13Z</time>
      </trkpt>
      <trkpt lat="50.39487" lon="5.87895">
        <ele>223</ele>
        <time>2018-11-04T16:27:24Z</time>
      </trkpt>
      <trkpt lat="50.39489" lon="5.87885">
        <ele>223</ele>
        <time>2018-11-04T16:27:34Z</time>
      </trkpt>
      <trkpt lat="50.39489" lon="5.87881">
        <ele>223</ele>
        <time>2018-11-04T16:27:45Z</time>
      </trkpt>
      <trkpt lat="50.39485" lon="5.87873">
        <ele>222</ele>
        <time>2018-11-04T16:27:56Z</time>
      </trkpt>
      <trkpt lat="50.39478" lon="5.87872">
        <ele>223</ele>
        <time>2018-11-04T16:28:07Z</time>
      </trkpt>
      <trkpt lat="50.39468" lon="5.87864">
        <ele>223</ele>
        <time>2018-11-04T16:28:17Z</time>
      </trkpt>
      <trkpt lat="50.39457" lon="5.87852">
        <ele>223</ele>
        <time>2018-11-04T16:28:27Z</time>
      </trkpt>
      <trkpt lat="50.39445" lon="5.87839">
        <ele>224</ele>
        <time>2018-11-04T16:28:38Z</time>
      </trkpt>
      <trkpt lat="50.39438" lon="5.87833">
        <ele>224</ele>
        <time>2018-11-04T16:28:48Z</time>
      </trkpt>
      <trkpt lat="50.39433" lon="5.87832">
        <ele>224</ele>
        <time>2018-11-04T16:28:58Z</time>
      </trkpt>
      <trkpt lat="50.39424" lon="5.87825">
        <ele>224</ele>
        <time>2018-11-04T16:29:08Z</time>
      </trkpt>
      <trkpt lat="50.39418" lon="5.87817">
        <ele>224</ele>
        <time>2018-11-04T16:29:18Z</time>
      </trkpt>
      <trkpt lat="50.39409" lon="5.8781">
        <ele>225</ele>
        <time>2018-11-04T16:29:29Z</time>
      </trkpt>
      <trkpt lat="50.39402" lon="5.87805">
        <ele>226</ele>
        <time>2018-11-04T16:29:39Z</time>
      </trkpt>
      <trkpt lat="50.39396" lon="5.87799">
        <ele>225</ele>
        <time>2018-11-04T16:29:50Z</time>
      </trkpt>
      <trkpt lat="50.39389" lon="5.8779">
        <ele>226</ele>
        <time>2018-11-04T16:30:00Z</time>
      </trkpt>
      <trkpt lat="50.39381" lon="5.87775">
        <ele>226</ele>
        <time>2018-11-04T16:30:11Z</time>
      </trkpt>
      <trkpt lat="50.39375" lon="5.8776">
        <ele>225</ele>
        <time>2018-11-04T16:30:21Z</time>
      </trkpt>
      <trkpt lat="50.3937" lon="5.87745">
        <ele>224</ele>
        <time>2018-11-04T16:30:32Z</time>
      </trkpt>
      <trkpt lat="50.39365" lon="5.8773">
        <ele>224</ele>
        <time>2018-11-04T16:30:42Z</time>
      </trkpt>
      <trkpt lat="50.3936" lon="5.87716">
        <ele>223</ele>
        <time>2018-11-04T16:30:52Z</time>
      </trkpt>
      <trkpt lat="50.39356" lon="5.87703">
        <ele>223</ele>
        <time>2018-11-04T16:31:02Z</time>
      </trkpt>
      <trkpt lat="50.39355" lon="5.87701">
        <ele>223</ele>
        <time>2018-11-04T16:31:13Z</time>
      </trkpt>
      <trkpt lat="50.39352" lon="5.87699">
        <ele>223</ele>
        <time>2018-11-04T16:31:23Z</time>
      </trkpt>
      <trkpt lat="50.39349" lon="5.87683">
        <ele>223</ele>
        <time>2018-11-04T16:31:34Z</time>
      </trkpt>
      <trkpt lat="50.39344" lon="5.87671">
        <ele>223</ele>
        <time>2018-11-04T16:31:44Z</time>
      </trkpt>
      <trkpt lat="50.39341" lon="5.87662">
        <ele>222</ele>
        <time>2018-11-04T16:31:54Z</time>
      </trkpt>
      <trkpt lat="50.39338" lon="5.87657">
        <ele>222</ele>
        <time>2018-11-04T16:32:04Z</time>
      </trkpt>
      <trkpt lat="50.39331" lon="5.87653">
        <ele>222</ele>
        <time>2018-11-04T16:32:15Z</time>
      </trkpt>
      <trkpt lat="50.39324" lon="5.87665">
        <ele>222</ele>
        <time>2018-11-04T16:32:26Z</time>
      </trkpt>
      <trkpt lat="50.39317" lon="5.87677">
        <ele>222</ele>
        <time>2018-11-04T16:32:36Z</time>
      </trkpt>
      <trkpt lat="50.39309" lon="5.87678">
        <ele>221</ele>
        <time>2018-11-04T16:32:47Z</time>
      </trkpt>
      <trkpt lat="50.39301" lon="5.87667">
        <ele>221</ele>
        <time>2018-11-04T16:32:57Z</time>
      </trkpt>
      <trkpt lat="50.39293" lon="5.87653">
        <ele>220</ele>
        <time>2018-11-04T16:33:07Z</time>
      </trkpt>
      <trkpt lat="50.39289" lon="5.87637">
        <ele>220</ele>
        <time>2018-11-04T16:33:17Z</time>
      </trkpt>
      <trkpt lat="50.39288" lon="5.87636">
        <ele>220</ele>
        <time>2018-11-04T16:33:30Z</time>
      </trkpt>
      <trkpt lat="50.39288" lon="5.87637">
        <ele>220</ele>
        <time>2018-11-04T16:33:43Z</time>
      </trkpt>
      <trkpt lat="50.39288" lon="5.87638">
        <ele>220</ele>
        <time>2018-11-04T16:33:44Z</time>
      </trkpt>
    </trkseg>
  </trk>
</gpx>